<?xml version="1.0" encoding="UTF-8" standalone="no" ?>
<gpx xmlns="http://www.topografix.com/GPX/1/1" xmlns:xsi="http://www.w3.org/2001/XMLSchema-instance" xsi:schemaLocation="http://www.topografix.com/GPX/1/1 http://www.topografix.com/GPX/1/1/gpx.xsd" version="1.1" creator="VisuGPX - https://www.visugpx.com">
  <metadata>
    <name>20170716 - Landrecies Walincourt</name>
    <desc><![CDATA[Session VTT Landrecies Walincourt.
Temps sec]]></desc>
  </metadata>
  <trk>
    <name><![CDATA[2017-07-16 11:40:45]]></name>
    <trkseg>
      <trkpt lat="50.12443" lon="3.6781">
        <ele>141.93</ele>
        <time>2017-07-16T07:34:11Z</time>
      </trkpt>
      <trkpt lat="50.12443" lon="3.6781">
        <ele>141.93</ele>
        <time>2017-07-16T07:34:12Z</time>
      </trkpt>
      <trkpt lat="50.12426" lon="3.67824">
        <ele>140.97</ele>
        <time>2017-07-16T07:34:31Z</time>
      </trkpt>
      <trkpt lat="50.1242" lon="3.67831">
        <ele>139.53</ele>
        <time>2017-07-16T07:34:33Z</time>
      </trkpt>
      <trkpt lat="50.12413" lon="3.67839">
        <ele>139.53</ele>
        <time>2017-07-16T07:34:35Z</time>
      </trkpt>
      <trkpt lat="50.1241" lon="3.67842">
        <ele>139.53</ele>
        <time>2017-07-16T07:34:36Z</time>
      </trkpt>
      <trkpt lat="50.12349" lon="3.67906">
        <ele>139.53</ele>
        <time>2017-07-16T07:34:53Z</time>
      </trkpt>
      <trkpt lat="50.12329" lon="3.67929">
        <ele>139.53</ele>
        <time>2017-07-16T07:34:59Z</time>
      </trkpt>
      <trkpt lat="50.12328" lon="3.67935">
        <ele>139.53</ele>
        <time>2017-07-16T07:35:00Z</time>
      </trkpt>
      <trkpt lat="50.1233" lon="3.67941">
        <ele>139.53</ele>
        <time>2017-07-16T07:35:01Z</time>
      </trkpt>
      <trkpt lat="50.12336" lon="3.67961">
        <ele>139.53</ele>
        <time>2017-07-16T07:35:04Z</time>
      </trkpt>
      <trkpt lat="50.12338" lon="3.67967">
        <ele>139.53</ele>
        <time>2017-07-16T07:35:05Z</time>
      </trkpt>
      <trkpt lat="50.12338" lon="3.67974">
        <ele>139.53</ele>
        <time>2017-07-16T07:35:06Z</time>
      </trkpt>
      <trkpt lat="50.12339" lon="3.67981">
        <ele>139.53</ele>
        <time>2017-07-16T07:35:07Z</time>
      </trkpt>
      <trkpt lat="50.12338" lon="3.67987">
        <ele>139.53</ele>
        <time>2017-07-16T07:35:08Z</time>
      </trkpt>
      <trkpt lat="50.12337" lon="3.68001">
        <ele>139.53</ele>
        <time>2017-07-16T07:35:10Z</time>
      </trkpt>
      <trkpt lat="50.12334" lon="3.68015">
        <ele>139.53</ele>
        <time>2017-07-16T07:35:12Z</time>
      </trkpt>
      <trkpt lat="50.12321" lon="3.68086">
        <ele>139.53</ele>
        <time>2017-07-16T07:35:25Z</time>
      </trkpt>
      <trkpt lat="50.12311" lon="3.68135">
        <ele>139.53</ele>
        <time>2017-07-16T07:35:36Z</time>
      </trkpt>
      <trkpt lat="50.12294" lon="3.68201">
        <ele>139.53</ele>
        <time>2017-07-16T07:35:52Z</time>
      </trkpt>
      <trkpt lat="50.1229" lon="3.68213">
        <ele>140.97</ele>
        <time>2017-07-16T07:35:55Z</time>
      </trkpt>
      <trkpt lat="50.12288" lon="3.68213">
        <ele>140.97</ele>
        <time>2017-07-16T07:35:56Z</time>
      </trkpt>
      <trkpt lat="50.12285" lon="3.68209">
        <ele>140.97</ele>
        <time>2017-07-16T07:35:57Z</time>
      </trkpt>
      <trkpt lat="50.12283" lon="3.68206">
        <ele>140.97</ele>
        <time>2017-07-16T07:35:58Z</time>
      </trkpt>
      <trkpt lat="50.1228" lon="3.68202">
        <ele>140.97</ele>
        <time>2017-07-16T07:35:59Z</time>
      </trkpt>
      <trkpt lat="50.12224" lon="3.68129">
        <ele>140.97</ele>
        <time>2017-07-16T07:36:15Z</time>
      </trkpt>
      <trkpt lat="50.12184" lon="3.68075">
        <ele>140.97</ele>
        <time>2017-07-16T07:36:26Z</time>
      </trkpt>
      <trkpt lat="50.12181" lon="3.6807">
        <ele>140.97</ele>
        <time>2017-07-16T07:36:27Z</time>
      </trkpt>
      <trkpt lat="50.1213" lon="3.68004">
        <ele>140.97</ele>
        <time>2017-07-16T07:36:42Z</time>
      </trkpt>
      <trkpt lat="50.1211" lon="3.67978">
        <ele>140.97</ele>
        <time>2017-07-16T07:36:48Z</time>
      </trkpt>
      <trkpt lat="50.12107" lon="3.67973">
        <ele>140.97</ele>
        <time>2017-07-16T07:36:49Z</time>
      </trkpt>
      <trkpt lat="50.12103" lon="3.67968">
        <ele>140.97</ele>
        <time>2017-07-16T07:36:50Z</time>
      </trkpt>
      <trkpt lat="50.12028" lon="3.67867">
        <ele>140.97</ele>
        <time>2017-07-16T07:37:11Z</time>
      </trkpt>
      <trkpt lat="50.12021" lon="3.67857">
        <ele>140.97</ele>
        <time>2017-07-16T07:37:13Z</time>
      </trkpt>
      <trkpt lat="50.12018" lon="3.67852">
        <ele>140.97</ele>
        <time>2017-07-16T07:37:14Z</time>
      </trkpt>
      <trkpt lat="50.11964" lon="3.6778">
        <ele>140.97</ele>
        <time>2017-07-16T07:37:30Z</time>
      </trkpt>
      <trkpt lat="50.11911" lon="3.67708">
        <ele>140.01</ele>
        <time>2017-07-16T07:37:46Z</time>
      </trkpt>
      <trkpt lat="50.11876" lon="3.67665">
        <ele>140.01</ele>
        <time>2017-07-16T07:37:57Z</time>
      </trkpt>
      <trkpt lat="50.1187" lon="3.67656">
        <ele>140.01</ele>
        <time>2017-07-16T07:37:59Z</time>
      </trkpt>
      <trkpt lat="50.11867" lon="3.67652">
        <ele>140.01</ele>
        <time>2017-07-16T07:38:00Z</time>
      </trkpt>
      <trkpt lat="50.11803" lon="3.67565">
        <ele>139.53</ele>
        <time>2017-07-16T07:38:19Z</time>
      </trkpt>
      <trkpt lat="50.11745" lon="3.67484">
        <ele>139.53</ele>
        <time>2017-07-16T07:38:37Z</time>
      </trkpt>
      <trkpt lat="50.11738" lon="3.67475">
        <ele>139.53</ele>
        <time>2017-07-16T07:38:39Z</time>
      </trkpt>
      <trkpt lat="50.11735" lon="3.67471">
        <ele>139.53</ele>
        <time>2017-07-16T07:38:40Z</time>
      </trkpt>
      <trkpt lat="50.11676" lon="3.6739">
        <ele>139.53</ele>
        <time>2017-07-16T07:38:58Z</time>
      </trkpt>
      <trkpt lat="50.11602" lon="3.67289">
        <ele>139.53</ele>
        <time>2017-07-16T07:39:20Z</time>
      </trkpt>
      <trkpt lat="50.11525" lon="3.67184">
        <ele>139.53</ele>
        <time>2017-07-16T07:39:42Z</time>
      </trkpt>
      <trkpt lat="50.11457" lon="3.67091">
        <ele>139.53</ele>
        <time>2017-07-16T07:40:01Z</time>
      </trkpt>
      <trkpt lat="50.11387" lon="3.66996">
        <ele>139.53</ele>
        <time>2017-07-16T07:40:20Z</time>
      </trkpt>
      <trkpt lat="50.11303" lon="3.6688">
        <ele>139.53</ele>
        <time>2017-07-16T07:40:44Z</time>
      </trkpt>
      <trkpt lat="50.1126" lon="3.66799">
        <ele>139.53</ele>
        <time>2017-07-16T07:41:01Z</time>
      </trkpt>
      <trkpt lat="50.11226" lon="3.66718">
        <ele>139.53</ele>
        <time>2017-07-16T07:41:18Z</time>
      </trkpt>
      <trkpt lat="50.11184" lon="3.66611">
        <ele>139.53</ele>
        <time>2017-07-16T07:41:38Z</time>
      </trkpt>
      <trkpt lat="50.11144" lon="3.66511">
        <ele>139.53</ele>
        <time>2017-07-16T07:41:57Z</time>
      </trkpt>
      <trkpt lat="50.11099" lon="3.664">
        <ele>139.53</ele>
        <time>2017-07-16T07:42:17Z</time>
      </trkpt>
      <trkpt lat="50.11097" lon="3.66394">
        <ele>139.53</ele>
        <time>2017-07-16T07:42:18Z</time>
      </trkpt>
      <trkpt lat="50.11074" lon="3.66283">
        <ele>139.53</ele>
        <time>2017-07-16T07:42:35Z</time>
      </trkpt>
      <trkpt lat="50.11093" lon="3.66172">
        <ele>139.53</ele>
        <time>2017-07-16T07:42:51Z</time>
      </trkpt>
      <trkpt lat="50.11143" lon="3.66068">
        <ele>139.53</ele>
        <time>2017-07-16T07:43:09Z</time>
      </trkpt>
      <trkpt lat="50.11197" lon="3.65957">
        <ele>139.05</ele>
        <time>2017-07-16T07:43:28Z</time>
      </trkpt>
      <trkpt lat="50.11244" lon="3.65859">
        <ele>139.05</ele>
        <time>2017-07-16T07:43:45Z</time>
      </trkpt>
      <trkpt lat="50.11295" lon="3.65754">
        <ele>139.05</ele>
        <time>2017-07-16T07:44:03Z</time>
      </trkpt>
      <trkpt lat="50.11347" lon="3.65645">
        <ele>139.05</ele>
        <time>2017-07-16T07:44:21Z</time>
      </trkpt>
      <trkpt lat="50.11406" lon="3.65517">
        <ele>139.05</ele>
        <time>2017-07-16T07:44:41Z</time>
      </trkpt>
      <trkpt lat="50.11414" lon="3.65484">
        <ele>139.05</ele>
        <time>2017-07-16T07:44:46Z</time>
      </trkpt>
      <trkpt lat="50.11412" lon="3.65352">
        <ele>139.05</ele>
        <time>2017-07-16T07:45:04Z</time>
      </trkpt>
      <trkpt lat="50.11375" lon="3.65245">
        <ele>139.05</ele>
        <time>2017-07-16T07:45:20Z</time>
      </trkpt>
      <trkpt lat="50.11316" lon="3.65145">
        <ele>139.05</ele>
        <time>2017-07-16T07:45:38Z</time>
      </trkpt>
      <trkpt lat="50.11262" lon="3.65056">
        <ele>139.05</ele>
        <time>2017-07-16T07:45:54Z</time>
      </trkpt>
      <trkpt lat="50.11252" lon="3.65041">
        <ele>139.05</ele>
        <time>2017-07-16T07:45:57Z</time>
      </trkpt>
      <trkpt lat="50.11195" lon="3.64948">
        <ele>139.05</ele>
        <time>2017-07-16T07:46:15Z</time>
      </trkpt>
      <trkpt lat="50.11175" lon="3.64917">
        <ele>139.05</ele>
        <time>2017-07-16T07:46:21Z</time>
      </trkpt>
      <trkpt lat="50.11172" lon="3.64911">
        <ele>139.05</ele>
        <time>2017-07-16T07:46:22Z</time>
      </trkpt>
      <trkpt lat="50.11118" lon="3.64823">
        <ele>139.05</ele>
        <time>2017-07-16T07:46:39Z</time>
      </trkpt>
      <trkpt lat="50.11062" lon="3.64728">
        <ele>139.05</ele>
        <time>2017-07-16T07:46:57Z</time>
      </trkpt>
      <trkpt lat="50.11025" lon="3.64684">
        <ele>139.05</ele>
        <time>2017-07-16T07:47:07Z</time>
      </trkpt>
      <trkpt lat="50.11021" lon="3.64681">
        <ele>139.05</ele>
        <time>2017-07-16T07:47:08Z</time>
      </trkpt>
      <trkpt lat="50.10947" lon="3.64617">
        <ele>139.05</ele>
        <time>2017-07-16T07:47:26Z</time>
      </trkpt>
      <trkpt lat="50.10863" lon="3.64543">
        <ele>139.05</ele>
        <time>2017-07-16T07:47:43Z</time>
      </trkpt>
      <trkpt lat="50.10769" lon="3.64464">
        <ele>139.05</ele>
        <time>2017-07-16T07:48:01Z</time>
      </trkpt>
      <trkpt lat="50.10728" lon="3.64425">
        <ele>139.05</ele>
        <time>2017-07-16T07:48:11Z</time>
      </trkpt>
      <trkpt lat="50.10731" lon="3.64414">
        <ele>138.57</ele>
        <time>2017-07-16T07:48:13Z</time>
      </trkpt>
      <trkpt lat="50.10738" lon="3.64387">
        <ele>138.09</ele>
        <time>2017-07-16T07:48:16Z</time>
      </trkpt>
      <trkpt lat="50.10746" lon="3.6436">
        <ele>138.09</ele>
        <time>2017-07-16T07:48:19Z</time>
      </trkpt>
      <trkpt lat="50.10756" lon="3.64282">
        <ele>139.53</ele>
        <time>2017-07-16T07:48:31Z</time>
      </trkpt>
      <trkpt lat="50.1078" lon="3.64293">
        <ele>139.53</ele>
        <time>2017-07-16T07:48:38Z</time>
      </trkpt>
      <trkpt lat="50.10808" lon="3.64292">
        <ele>139.53</ele>
        <time>2017-07-16T07:48:44Z</time>
      </trkpt>
      <trkpt lat="50.10817" lon="3.64299">
        <ele>139.05</ele>
        <time>2017-07-16T07:48:46Z</time>
      </trkpt>
      <trkpt lat="50.10819" lon="3.64274">
        <ele>137.13</ele>
        <time>2017-07-16T07:48:52Z</time>
      </trkpt>
      <trkpt lat="50.10804" lon="3.64174">
        <ele>137.61</ele>
        <time>2017-07-16T07:49:05Z</time>
      </trkpt>
      <trkpt lat="50.10799" lon="3.64121">
        <ele>137.61</ele>
        <time>2017-07-16T07:49:13Z</time>
      </trkpt>
      <trkpt lat="50.10802" lon="3.64087">
        <ele>137.61</ele>
        <time>2017-07-16T07:49:18Z</time>
      </trkpt>
      <trkpt lat="50.10815" lon="3.64009">
        <ele>137.61</ele>
        <time>2017-07-16T07:49:32Z</time>
      </trkpt>
      <trkpt lat="50.10825" lon="3.63934">
        <ele>138.57</ele>
        <time>2017-07-16T07:49:47Z</time>
      </trkpt>
      <trkpt lat="50.10832" lon="3.639">
        <ele>138.57</ele>
        <time>2017-07-16T07:49:56Z</time>
      </trkpt>
      <trkpt lat="50.10831" lon="3.63897">
        <ele>138.57</ele>
        <time>2017-07-16T07:49:59Z</time>
      </trkpt>
      <trkpt lat="50.1084" lon="3.6388">
        <ele>138.57</ele>
        <time>2017-07-16T07:50:07Z</time>
      </trkpt>
      <trkpt lat="50.1089" lon="3.63855">
        <ele>140.01</ele>
        <time>2017-07-16T07:50:21Z</time>
      </trkpt>
      <trkpt lat="50.10897" lon="3.6385">
        <ele>140.01</ele>
        <time>2017-07-16T07:50:23Z</time>
      </trkpt>
      <trkpt lat="50.10915" lon="3.63841">
        <ele>140.97</ele>
        <time>2017-07-16T07:50:27Z</time>
      </trkpt>
      <trkpt lat="50.1092" lon="3.63839">
        <ele>140.97</ele>
        <time>2017-07-16T07:50:28Z</time>
      </trkpt>
      <trkpt lat="50.10954" lon="3.63825">
        <ele>143.37</ele>
        <time>2017-07-16T07:50:37Z</time>
      </trkpt>
      <trkpt lat="50.10956" lon="3.63821">
        <ele>143.85</ele>
        <time>2017-07-16T07:50:38Z</time>
      </trkpt>
      <trkpt lat="50.10956" lon="3.63817">
        <ele>143.85</ele>
        <time>2017-07-16T07:50:39Z</time>
      </trkpt>
      <trkpt lat="50.10956" lon="3.63812">
        <ele>143.85</ele>
        <time>2017-07-16T07:50:40Z</time>
      </trkpt>
      <trkpt lat="50.10955" lon="3.63805">
        <ele>143.85</ele>
        <time>2017-07-16T07:50:41Z</time>
      </trkpt>
      <trkpt lat="50.10952" lon="3.63798">
        <ele>142.41</ele>
        <time>2017-07-16T07:50:42Z</time>
      </trkpt>
      <trkpt lat="50.10948" lon="3.63791">
        <ele>142.41</ele>
        <time>2017-07-16T07:50:43Z</time>
      </trkpt>
      <trkpt lat="50.10896" lon="3.63682">
        <ele>139.53</ele>
        <time>2017-07-16T07:50:57Z</time>
      </trkpt>
      <trkpt lat="50.10834" lon="3.63569">
        <ele>138.57</ele>
        <time>2017-07-16T07:51:12Z</time>
      </trkpt>
      <trkpt lat="50.10818" lon="3.63543">
        <ele>140.01</ele>
        <time>2017-07-16T07:51:16Z</time>
      </trkpt>
      <trkpt lat="50.10759" lon="3.63442">
        <ele>142.89</ele>
        <time>2017-07-16T07:51:31Z</time>
      </trkpt>
      <trkpt lat="50.10755" lon="3.63435">
        <ele>142.89</ele>
        <time>2017-07-16T07:51:32Z</time>
      </trkpt>
      <trkpt lat="50.10751" lon="3.63429">
        <ele>142.89</ele>
        <time>2017-07-16T07:51:33Z</time>
      </trkpt>
      <trkpt lat="50.10747" lon="3.63422">
        <ele>143.37</ele>
        <time>2017-07-16T07:51:34Z</time>
      </trkpt>
      <trkpt lat="50.10743" lon="3.63415">
        <ele>143.37</ele>
        <time>2017-07-16T07:51:35Z</time>
      </trkpt>
      <trkpt lat="50.1074" lon="3.63408">
        <ele>143.85</ele>
        <time>2017-07-16T07:51:36Z</time>
      </trkpt>
      <trkpt lat="50.10736" lon="3.63402">
        <ele>143.85</ele>
        <time>2017-07-16T07:51:37Z</time>
      </trkpt>
      <trkpt lat="50.10733" lon="3.63395">
        <ele>143.85</ele>
        <time>2017-07-16T07:51:38Z</time>
      </trkpt>
      <trkpt lat="50.10721" lon="3.6337">
        <ele>145.3</ele>
        <time>2017-07-16T07:51:42Z</time>
      </trkpt>
      <trkpt lat="50.10679" lon="3.63295">
        <ele>147.22</ele>
        <time>2017-07-16T07:51:58Z</time>
      </trkpt>
      <trkpt lat="50.10635" lon="3.63223">
        <ele>147.22</ele>
        <time>2017-07-16T07:52:15Z</time>
      </trkpt>
      <trkpt lat="50.10593" lon="3.63148">
        <ele>147.22</ele>
        <time>2017-07-16T07:52:30Z</time>
      </trkpt>
      <trkpt lat="50.1055" lon="3.63071">
        <ele>147.22</ele>
        <time>2017-07-16T07:52:45Z</time>
      </trkpt>
      <trkpt lat="50.105" lon="3.62983">
        <ele>147.22</ele>
        <time>2017-07-16T07:53:02Z</time>
      </trkpt>
      <trkpt lat="50.10451" lon="3.62888">
        <ele>147.22</ele>
        <time>2017-07-16T07:53:19Z</time>
      </trkpt>
      <trkpt lat="50.10434" lon="3.62848">
        <ele>148.18</ele>
        <time>2017-07-16T07:53:27Z</time>
      </trkpt>
      <trkpt lat="50.10407" lon="3.62793">
        <ele>148.18</ele>
        <time>2017-07-16T07:53:38Z</time>
      </trkpt>
      <trkpt lat="50.10405" lon="3.62788">
        <ele>148.18</ele>
        <time>2017-07-16T07:53:39Z</time>
      </trkpt>
      <trkpt lat="50.10389" lon="3.62759">
        <ele>148.18</ele>
        <time>2017-07-16T07:53:45Z</time>
      </trkpt>
      <trkpt lat="50.10386" lon="3.62755">
        <ele>148.18</ele>
        <time>2017-07-16T07:53:46Z</time>
      </trkpt>
      <trkpt lat="50.10383" lon="3.6275">
        <ele>148.18</ele>
        <time>2017-07-16T07:53:47Z</time>
      </trkpt>
      <trkpt lat="50.10381" lon="3.62744">
        <ele>148.66</ele>
        <time>2017-07-16T07:53:48Z</time>
      </trkpt>
      <trkpt lat="50.10378" lon="3.62739">
        <ele>148.66</ele>
        <time>2017-07-16T07:53:49Z</time>
      </trkpt>
      <trkpt lat="50.10376" lon="3.62734">
        <ele>148.66</ele>
        <time>2017-07-16T07:53:50Z</time>
      </trkpt>
      <trkpt lat="50.10373" lon="3.62729">
        <ele>148.66</ele>
        <time>2017-07-16T07:53:51Z</time>
      </trkpt>
      <trkpt lat="50.10363" lon="3.62704">
        <ele>148.66</ele>
        <time>2017-07-16T07:53:55Z</time>
      </trkpt>
      <trkpt lat="50.1036" lon="3.62698">
        <ele>148.66</ele>
        <time>2017-07-16T07:53:56Z</time>
      </trkpt>
      <trkpt lat="50.10353" lon="3.62687">
        <ele>147.22</ele>
        <time>2017-07-16T07:53:58Z</time>
      </trkpt>
      <trkpt lat="50.10348" lon="3.62676">
        <ele>146.74</ele>
        <time>2017-07-16T07:54:00Z</time>
      </trkpt>
      <trkpt lat="50.10344" lon="3.6267">
        <ele>146.74</ele>
        <time>2017-07-16T07:54:01Z</time>
      </trkpt>
      <trkpt lat="50.10338" lon="3.6266">
        <ele>146.74</ele>
        <time>2017-07-16T07:54:03Z</time>
      </trkpt>
      <trkpt lat="50.10335" lon="3.62655">
        <ele>146.74</ele>
        <time>2017-07-16T07:54:04Z</time>
      </trkpt>
      <trkpt lat="50.10303" lon="3.62622">
        <ele>146.74</ele>
        <time>2017-07-16T07:54:12Z</time>
      </trkpt>
      <trkpt lat="50.10299" lon="3.62619">
        <ele>146.74</ele>
        <time>2017-07-16T07:54:13Z</time>
      </trkpt>
      <trkpt lat="50.10295" lon="3.62614">
        <ele>146.74</ele>
        <time>2017-07-16T07:54:14Z</time>
      </trkpt>
      <trkpt lat="50.10292" lon="3.62608">
        <ele>146.74</ele>
        <time>2017-07-16T07:54:15Z</time>
      </trkpt>
      <trkpt lat="50.10289" lon="3.62602">
        <ele>146.74</ele>
        <time>2017-07-16T07:54:16Z</time>
      </trkpt>
      <trkpt lat="50.10252" lon="3.62531">
        <ele>146.74</ele>
        <time>2017-07-16T07:54:29Z</time>
      </trkpt>
      <trkpt lat="50.10213" lon="3.62462">
        <ele>146.74</ele>
        <time>2017-07-16T07:54:42Z</time>
      </trkpt>
      <trkpt lat="50.1021" lon="3.62457">
        <ele>146.74</ele>
        <time>2017-07-16T07:54:43Z</time>
      </trkpt>
      <trkpt lat="50.10153" lon="3.62358">
        <ele>146.74</ele>
        <time>2017-07-16T07:55:01Z</time>
      </trkpt>
      <trkpt lat="50.10105" lon="3.62251">
        <ele>146.74</ele>
        <time>2017-07-16T07:55:19Z</time>
      </trkpt>
      <trkpt lat="50.10104" lon="3.62244">
        <ele>146.74</ele>
        <time>2017-07-16T07:55:20Z</time>
      </trkpt>
      <trkpt lat="50.10103" lon="3.62236">
        <ele>146.74</ele>
        <time>2017-07-16T07:55:21Z</time>
      </trkpt>
      <trkpt lat="50.10104" lon="3.62229">
        <ele>146.74</ele>
        <time>2017-07-16T07:55:22Z</time>
      </trkpt>
      <trkpt lat="50.10105" lon="3.62221">
        <ele>146.74</ele>
        <time>2017-07-16T07:55:23Z</time>
      </trkpt>
      <trkpt lat="50.10106" lon="3.62214">
        <ele>146.74</ele>
        <time>2017-07-16T07:55:24Z</time>
      </trkpt>
      <trkpt lat="50.10106" lon="3.62207">
        <ele>146.74</ele>
        <time>2017-07-16T07:55:25Z</time>
      </trkpt>
      <trkpt lat="50.10105" lon="3.62186">
        <ele>146.74</ele>
        <time>2017-07-16T07:55:28Z</time>
      </trkpt>
      <trkpt lat="50.10095" lon="3.62123">
        <ele>147.7</ele>
        <time>2017-07-16T07:55:38Z</time>
      </trkpt>
      <trkpt lat="50.10091" lon="3.62105">
        <ele>148.18</ele>
        <time>2017-07-16T07:55:41Z</time>
      </trkpt>
      <trkpt lat="50.10077" lon="3.62042">
        <ele>147.7</ele>
        <time>2017-07-16T07:55:51Z</time>
      </trkpt>
      <trkpt lat="50.10054" lon="3.61926">
        <ele>147.7</ele>
        <time>2017-07-16T07:56:09Z</time>
      </trkpt>
      <trkpt lat="50.10042" lon="3.61851">
        <ele>147.7</ele>
        <time>2017-07-16T07:56:21Z</time>
      </trkpt>
      <trkpt lat="50.10025" lon="3.6174">
        <ele>148.18</ele>
        <time>2017-07-16T07:56:40Z</time>
      </trkpt>
      <trkpt lat="50.10006" lon="3.61631">
        <ele>151.06</ele>
        <time>2017-07-16T07:56:59Z</time>
      </trkpt>
      <trkpt lat="50.09995" lon="3.61561">
        <ele>152.51</ele>
        <time>2017-07-16T07:57:12Z</time>
      </trkpt>
      <trkpt lat="50.09989" lon="3.61482">
        <ele>151.06</ele>
        <time>2017-07-16T07:57:26Z</time>
      </trkpt>
      <trkpt lat="50.09991" lon="3.61392">
        <ele>149.62</ele>
        <time>2017-07-16T07:57:41Z</time>
      </trkpt>
      <trkpt lat="50.09997" lon="3.6133">
        <ele>148.66</ele>
        <time>2017-07-16T07:57:53Z</time>
      </trkpt>
      <trkpt lat="50.09998" lon="3.6132">
        <ele>148.18</ele>
        <time>2017-07-16T07:57:55Z</time>
      </trkpt>
      <trkpt lat="50.09998" lon="3.61316">
        <ele>148.18</ele>
        <time>2017-07-16T07:57:56Z</time>
      </trkpt>
      <trkpt lat="50.09997" lon="3.61314">
        <ele>148.18</ele>
        <time>2017-07-16T07:57:57Z</time>
      </trkpt>
      <trkpt lat="50.09996" lon="3.61311">
        <ele>148.18</ele>
        <time>2017-07-16T07:57:58Z</time>
      </trkpt>
      <trkpt lat="50.09995" lon="3.61307">
        <ele>148.18</ele>
        <time>2017-07-16T07:57:59Z</time>
      </trkpt>
      <trkpt lat="50.09994" lon="3.61304">
        <ele>148.18</ele>
        <time>2017-07-16T07:58:00Z</time>
      </trkpt>
      <trkpt lat="50.09994" lon="3.61299">
        <ele>148.18</ele>
        <time>2017-07-16T07:58:01Z</time>
      </trkpt>
      <trkpt lat="50.09994" lon="3.61294">
        <ele>148.18</ele>
        <time>2017-07-16T07:58:02Z</time>
      </trkpt>
      <trkpt lat="50.09993" lon="3.6124">
        <ele>149.62</ele>
        <time>2017-07-16T07:58:11Z</time>
      </trkpt>
      <trkpt lat="50.09991" lon="3.61222">
        <ele>150.1</ele>
        <time>2017-07-16T07:58:15Z</time>
      </trkpt>
      <trkpt lat="50.09949" lon="3.61205">
        <ele>152.03</ele>
        <time>2017-07-16T07:58:27Z</time>
      </trkpt>
      <trkpt lat="50.09905" lon="3.61202">
        <ele>152.03</ele>
        <time>2017-07-16T07:58:38Z</time>
      </trkpt>
      <trkpt lat="50.09881" lon="3.61206">
        <ele>152.99</ele>
        <time>2017-07-16T07:58:44Z</time>
      </trkpt>
      <trkpt lat="50.0987" lon="3.61219">
        <ele>152.99</ele>
        <time>2017-07-16T07:58:47Z</time>
      </trkpt>
      <trkpt lat="50.09856" lon="3.61241">
        <ele>151.06</ele>
        <time>2017-07-16T07:58:51Z</time>
      </trkpt>
      <trkpt lat="50.09839" lon="3.61285">
        <ele>150.1</ele>
        <time>2017-07-16T07:58:57Z</time>
      </trkpt>
      <trkpt lat="50.09832" lon="3.6132">
        <ele>149.62</ele>
        <time>2017-07-16T07:59:01Z</time>
      </trkpt>
      <trkpt lat="50.09826" lon="3.61382">
        <ele>151.06</ele>
        <time>2017-07-16T07:59:09Z</time>
      </trkpt>
      <trkpt lat="50.09819" lon="3.61401">
        <ele>151.54</ele>
        <time>2017-07-16T07:59:13Z</time>
      </trkpt>
      <trkpt lat="50.09809" lon="3.61423">
        <ele>152.03</ele>
        <time>2017-07-16T07:59:18Z</time>
      </trkpt>
      <trkpt lat="50.09775" lon="3.61466">
        <ele>152.03</ele>
        <time>2017-07-16T07:59:30Z</time>
      </trkpt>
      <trkpt lat="50.09758" lon="3.61488">
        <ele>152.03</ele>
        <time>2017-07-16T07:59:36Z</time>
      </trkpt>
      <trkpt lat="50.09746" lon="3.61485">
        <ele>152.03</ele>
        <time>2017-07-16T07:59:40Z</time>
      </trkpt>
      <trkpt lat="50.09719" lon="3.61427">
        <ele>152.03</ele>
        <time>2017-07-16T07:59:52Z</time>
      </trkpt>
      <trkpt lat="50.09701" lon="3.6138">
        <ele>152.03</ele>
        <time>2017-07-16T08:00:01Z</time>
      </trkpt>
      <trkpt lat="50.09679" lon="3.61315">
        <ele>152.03</ele>
        <time>2017-07-16T08:00:12Z</time>
      </trkpt>
      <trkpt lat="50.09675" lon="3.61303">
        <ele>152.03</ele>
        <time>2017-07-16T08:00:14Z</time>
      </trkpt>
      <trkpt lat="50.0966" lon="3.61248">
        <ele>152.03</ele>
        <time>2017-07-16T08:00:24Z</time>
      </trkpt>
      <trkpt lat="50.09639" lon="3.6119">
        <ele>152.03</ele>
        <time>2017-07-16T08:00:33Z</time>
      </trkpt>
      <trkpt lat="50.09626" lon="3.61152">
        <ele>152.51</ele>
        <time>2017-07-16T08:00:41Z</time>
      </trkpt>
      <trkpt lat="50.09622" lon="3.61141">
        <ele>152.51</ele>
        <time>2017-07-16T08:00:54Z</time>
      </trkpt>
      <trkpt lat="50.09621" lon="3.61137">
        <ele>152.51</ele>
        <time>2017-07-16T08:00:56Z</time>
      </trkpt>
      <trkpt lat="50.09618" lon="3.61124">
        <ele>152.51</ele>
        <time>2017-07-16T08:01:00Z</time>
      </trkpt>
      <trkpt lat="50.09615" lon="3.61115">
        <ele>151.06</ele>
        <time>2017-07-16T08:01:02Z</time>
      </trkpt>
      <trkpt lat="50.09604" lon="3.61053">
        <ele>149.14</ele>
        <time>2017-07-16T08:01:12Z</time>
      </trkpt>
      <trkpt lat="50.0959" lon="3.60978">
        <ele>147.22</ele>
        <time>2017-07-16T08:01:20Z</time>
      </trkpt>
      <trkpt lat="50.09583" lon="3.60945">
        <ele>146.74</ele>
        <time>2017-07-16T08:01:24Z</time>
      </trkpt>
      <trkpt lat="50.09593" lon="3.60906">
        <ele>146.26</ele>
        <time>2017-07-16T08:01:31Z</time>
      </trkpt>
      <trkpt lat="50.09603" lon="3.60901">
        <ele>147.7</ele>
        <time>2017-07-16T08:01:34Z</time>
      </trkpt>
      <trkpt lat="50.09633" lon="3.60878">
        <ele>149.62</ele>
        <time>2017-07-16T08:01:42Z</time>
      </trkpt>
      <trkpt lat="50.09668" lon="3.60846">
        <ele>151.06</ele>
        <time>2017-07-16T08:01:51Z</time>
      </trkpt>
      <trkpt lat="50.09682" lon="3.60831">
        <ele>151.54</ele>
        <time>2017-07-16T08:01:55Z</time>
      </trkpt>
      <trkpt lat="50.09687" lon="3.60822">
        <ele>152.51</ele>
        <time>2017-07-16T08:01:57Z</time>
      </trkpt>
      <trkpt lat="50.09708" lon="3.60754">
        <ele>152.03</ele>
        <time>2017-07-16T08:02:09Z</time>
      </trkpt>
      <trkpt lat="50.09714" lon="3.60733">
        <ele>152.03</ele>
        <time>2017-07-16T08:02:12Z</time>
      </trkpt>
      <trkpt lat="50.0974" lon="3.60655">
        <ele>152.03</ele>
        <time>2017-07-16T08:02:24Z</time>
      </trkpt>
      <trkpt lat="50.09744" lon="3.60642">
        <ele>151.06</ele>
        <time>2017-07-16T08:02:26Z</time>
      </trkpt>
      <trkpt lat="50.09771" lon="3.60584">
        <ele>151.06</ele>
        <time>2017-07-16T08:02:36Z</time>
      </trkpt>
      <trkpt lat="50.09782" lon="3.60566">
        <ele>150.1</ele>
        <time>2017-07-16T08:02:39Z</time>
      </trkpt>
      <trkpt lat="50.09818" lon="3.60562">
        <ele>150.1</ele>
        <time>2017-07-16T08:02:47Z</time>
      </trkpt>
      <trkpt lat="50.09824" lon="3.60559">
        <ele>151.06</ele>
        <time>2017-07-16T08:02:49Z</time>
      </trkpt>
      <trkpt lat="50.09841" lon="3.60532">
        <ele>151.06</ele>
        <time>2017-07-16T08:02:56Z</time>
      </trkpt>
      <trkpt lat="50.09853" lon="3.60504">
        <ele>150.1</ele>
        <time>2017-07-16T08:03:01Z</time>
      </trkpt>
      <trkpt lat="50.09859" lon="3.60493">
        <ele>150.1</ele>
        <time>2017-07-16T08:03:03Z</time>
      </trkpt>
      <trkpt lat="50.09885" lon="3.60433">
        <ele>147.7</ele>
        <time>2017-07-16T08:03:11Z</time>
      </trkpt>
      <trkpt lat="50.09885" lon="3.60414">
        <ele>147.22</ele>
        <time>2017-07-16T08:03:13Z</time>
      </trkpt>
      <trkpt lat="50.09894" lon="3.60375">
        <ele>146.26</ele>
        <time>2017-07-16T08:03:17Z</time>
      </trkpt>
      <trkpt lat="50.0991" lon="3.60315">
        <ele>144.82</ele>
        <time>2017-07-16T08:03:24Z</time>
      </trkpt>
      <trkpt lat="50.09906" lon="3.60265">
        <ele>142.89</ele>
        <time>2017-07-16T08:03:29Z</time>
      </trkpt>
      <trkpt lat="50.09897" lon="3.60231">
        <ele>141.93</ele>
        <time>2017-07-16T08:03:32Z</time>
      </trkpt>
      <trkpt lat="50.09891" lon="3.60198">
        <ele>140.97</ele>
        <time>2017-07-16T08:03:35Z</time>
      </trkpt>
      <trkpt lat="50.09888" lon="3.60176">
        <ele>140.49</ele>
        <time>2017-07-16T08:03:37Z</time>
      </trkpt>
      <trkpt lat="50.09882" lon="3.60147">
        <ele>140.01</ele>
        <time>2017-07-16T08:03:40Z</time>
      </trkpt>
      <trkpt lat="50.09887" lon="3.60128">
        <ele>139.05</ele>
        <time>2017-07-16T08:03:43Z</time>
      </trkpt>
      <trkpt lat="50.09897" lon="3.60116">
        <ele>138.57</ele>
        <time>2017-07-16T08:03:45Z</time>
      </trkpt>
      <trkpt lat="50.09901" lon="3.60109">
        <ele>138.57</ele>
        <time>2017-07-16T08:03:46Z</time>
      </trkpt>
      <trkpt lat="50.09905" lon="3.60103">
        <ele>138.57</ele>
        <time>2017-07-16T08:03:47Z</time>
      </trkpt>
      <trkpt lat="50.09909" lon="3.60096">
        <ele>138.57</ele>
        <time>2017-07-16T08:03:48Z</time>
      </trkpt>
      <trkpt lat="50.09912" lon="3.60089">
        <ele>138.57</ele>
        <time>2017-07-16T08:03:49Z</time>
      </trkpt>
      <trkpt lat="50.09916" lon="3.60082">
        <ele>138.09</ele>
        <time>2017-07-16T08:03:50Z</time>
      </trkpt>
      <trkpt lat="50.0992" lon="3.60076">
        <ele>138.09</ele>
        <time>2017-07-16T08:03:51Z</time>
      </trkpt>
      <trkpt lat="50.09924" lon="3.6007">
        <ele>138.09</ele>
        <time>2017-07-16T08:03:52Z</time>
      </trkpt>
      <trkpt lat="50.09927" lon="3.60064">
        <ele>138.09</ele>
        <time>2017-07-16T08:03:53Z</time>
      </trkpt>
      <trkpt lat="50.09929" lon="3.60058">
        <ele>138.09</ele>
        <time>2017-07-16T08:03:54Z</time>
      </trkpt>
      <trkpt lat="50.09933" lon="3.60052">
        <ele>138.09</ele>
        <time>2017-07-16T08:03:55Z</time>
      </trkpt>
      <trkpt lat="50.09936" lon="3.60047">
        <ele>138.09</ele>
        <time>2017-07-16T08:03:56Z</time>
      </trkpt>
      <trkpt lat="50.09939" lon="3.60042">
        <ele>138.09</ele>
        <time>2017-07-16T08:03:57Z</time>
      </trkpt>
      <trkpt lat="50.09943" lon="3.60036">
        <ele>138.09</ele>
        <time>2017-07-16T08:03:58Z</time>
      </trkpt>
      <trkpt lat="50.09947" lon="3.6003">
        <ele>138.09</ele>
        <time>2017-07-16T08:03:59Z</time>
      </trkpt>
      <trkpt lat="50.09963" lon="3.60009">
        <ele>138.09</ele>
        <time>2017-07-16T08:04:03Z</time>
      </trkpt>
      <trkpt lat="50.09988" lon="3.59985">
        <ele>139.05</ele>
        <time>2017-07-16T08:04:11Z</time>
      </trkpt>
      <trkpt lat="50.0999" lon="3.5998">
        <ele>139.05</ele>
        <time>2017-07-16T08:04:12Z</time>
      </trkpt>
      <trkpt lat="50.0999" lon="3.59975">
        <ele>139.05</ele>
        <time>2017-07-16T08:04:13Z</time>
      </trkpt>
      <trkpt lat="50.09993" lon="3.59947">
        <ele>139.05</ele>
        <time>2017-07-16T08:04:17Z</time>
      </trkpt>
      <trkpt lat="50.09999" lon="3.59917">
        <ele>139.05</ele>
        <time>2017-07-16T08:04:21Z</time>
      </trkpt>
      <trkpt lat="50.10002" lon="3.5991">
        <ele>138.09</ele>
        <time>2017-07-16T08:04:22Z</time>
      </trkpt>
      <trkpt lat="50.10005" lon="3.59903">
        <ele>138.09</ele>
        <time>2017-07-16T08:04:23Z</time>
      </trkpt>
      <trkpt lat="50.10008" lon="3.59897">
        <ele>138.09</ele>
        <time>2017-07-16T08:04:24Z</time>
      </trkpt>
      <trkpt lat="50.10011" lon="3.5989">
        <ele>138.09</ele>
        <time>2017-07-16T08:04:25Z</time>
      </trkpt>
      <trkpt lat="50.10013" lon="3.59884">
        <ele>138.09</ele>
        <time>2017-07-16T08:04:26Z</time>
      </trkpt>
      <trkpt lat="50.10014" lon="3.59876">
        <ele>138.09</ele>
        <time>2017-07-16T08:04:27Z</time>
      </trkpt>
      <trkpt lat="50.10044" lon="3.59745">
        <ele>137.61</ele>
        <time>2017-07-16T08:04:44Z</time>
      </trkpt>
      <trkpt lat="50.10046" lon="3.59738">
        <ele>137.61</ele>
        <time>2017-07-16T08:04:45Z</time>
      </trkpt>
      <trkpt lat="50.10047" lon="3.5973">
        <ele>137.61</ele>
        <time>2017-07-16T08:04:46Z</time>
      </trkpt>
      <trkpt lat="50.10055" lon="3.59701">
        <ele>137.61</ele>
        <time>2017-07-16T08:04:50Z</time>
      </trkpt>
      <trkpt lat="50.10087" lon="3.59576">
        <ele>139.05</ele>
        <time>2017-07-16T08:05:06Z</time>
      </trkpt>
      <trkpt lat="50.10088" lon="3.59568">
        <ele>139.05</ele>
        <time>2017-07-16T08:05:07Z</time>
      </trkpt>
      <trkpt lat="50.10089" lon="3.5956">
        <ele>139.05</ele>
        <time>2017-07-16T08:05:08Z</time>
      </trkpt>
      <trkpt lat="50.10081" lon="3.59437">
        <ele>139.53</ele>
        <time>2017-07-16T08:05:23Z</time>
      </trkpt>
      <trkpt lat="50.10073" lon="3.59318">
        <ele>140.01</ele>
        <time>2017-07-16T08:05:38Z</time>
      </trkpt>
      <trkpt lat="50.10081" lon="3.59192">
        <ele>140.01</ele>
        <time>2017-07-16T08:05:53Z</time>
      </trkpt>
      <trkpt lat="50.10084" lon="3.59175">
        <ele>139.05</ele>
        <time>2017-07-16T08:05:55Z</time>
      </trkpt>
      <trkpt lat="50.10107" lon="3.59026">
        <ele>138.09</ele>
        <time>2017-07-16T08:06:14Z</time>
      </trkpt>
      <trkpt lat="50.1013" lon="3.58886">
        <ele>137.13</ele>
        <time>2017-07-16T08:06:32Z</time>
      </trkpt>
      <trkpt lat="50.10147" lon="3.5874">
        <ele>135.68</ele>
        <time>2017-07-16T08:06:50Z</time>
      </trkpt>
      <trkpt lat="50.1015" lon="3.58593">
        <ele>133.28</ele>
        <time>2017-07-16T08:07:05Z</time>
      </trkpt>
      <trkpt lat="50.10166" lon="3.58458">
        <ele>129.92</ele>
        <time>2017-07-16T08:07:17Z</time>
      </trkpt>
      <trkpt lat="50.10186" lon="3.58334">
        <ele>126.07</ele>
        <time>2017-07-16T08:07:28Z</time>
      </trkpt>
      <trkpt lat="50.10196" lon="3.58287">
        <ele>124.63</ele>
        <time>2017-07-16T08:07:32Z</time>
      </trkpt>
      <trkpt lat="50.10212" lon="3.58197">
        <ele>120.78</ele>
        <time>2017-07-16T08:07:39Z</time>
      </trkpt>
      <trkpt lat="50.10209" lon="3.58105">
        <ele>118.86</ele>
        <time>2017-07-16T08:07:47Z</time>
      </trkpt>
      <trkpt lat="50.10202" lon="3.5805">
        <ele>118.38</ele>
        <time>2017-07-16T08:07:53Z</time>
      </trkpt>
      <trkpt lat="50.10203" lon="3.5804">
        <ele>117.9</ele>
        <time>2017-07-16T08:07:54Z</time>
      </trkpt>
      <trkpt lat="50.10205" lon="3.58032">
        <ele>118.38</ele>
        <time>2017-07-16T08:07:55Z</time>
      </trkpt>
      <trkpt lat="50.10207" lon="3.58024">
        <ele>118.38</ele>
        <time>2017-07-16T08:07:56Z</time>
      </trkpt>
      <trkpt lat="50.10209" lon="3.58017">
        <ele>118.38</ele>
        <time>2017-07-16T08:07:57Z</time>
      </trkpt>
      <trkpt lat="50.10211" lon="3.58009">
        <ele>117.9</ele>
        <time>2017-07-16T08:07:58Z</time>
      </trkpt>
      <trkpt lat="50.10219" lon="3.57977">
        <ele>116.94</ele>
        <time>2017-07-16T08:08:02Z</time>
      </trkpt>
      <trkpt lat="50.10221" lon="3.57971">
        <ele>116.46</ele>
        <time>2017-07-16T08:08:03Z</time>
      </trkpt>
      <trkpt lat="50.10221" lon="3.57926">
        <ele>115.5</ele>
        <time>2017-07-16T08:08:12Z</time>
      </trkpt>
      <trkpt lat="50.10218" lon="3.57916">
        <ele>116.46</ele>
        <time>2017-07-16T08:08:14Z</time>
      </trkpt>
      <trkpt lat="50.10195" lon="3.57857">
        <ele>119.82</ele>
        <time>2017-07-16T08:08:27Z</time>
      </trkpt>
      <trkpt lat="50.10175" lon="3.57803">
        <ele>122.71</ele>
        <time>2017-07-16T08:08:39Z</time>
      </trkpt>
      <trkpt lat="50.10152" lon="3.57749">
        <ele>125.11</ele>
        <time>2017-07-16T08:08:51Z</time>
      </trkpt>
      <trkpt lat="50.1015" lon="3.57743">
        <ele>125.11</ele>
        <time>2017-07-16T08:08:52Z</time>
      </trkpt>
      <trkpt lat="50.10148" lon="3.57738">
        <ele>126.07</ele>
        <time>2017-07-16T08:08:53Z</time>
      </trkpt>
      <trkpt lat="50.10135" lon="3.57675">
        <ele>128.95</ele>
        <time>2017-07-16T08:09:06Z</time>
      </trkpt>
      <trkpt lat="50.10148" lon="3.57574">
        <ele>128.95</ele>
        <time>2017-07-16T08:09:24Z</time>
      </trkpt>
      <trkpt lat="50.10164" lon="3.57482">
        <ele>128.95</ele>
        <time>2017-07-16T08:09:40Z</time>
      </trkpt>
      <trkpt lat="50.10177" lon="3.57375">
        <ele>130.4</ele>
        <time>2017-07-16T08:09:58Z</time>
      </trkpt>
      <trkpt lat="50.10178" lon="3.57356">
        <ele>130.4</ele>
        <time>2017-07-16T08:10:01Z</time>
      </trkpt>
      <trkpt lat="50.10177" lon="3.5735">
        <ele>131.36</ele>
        <time>2017-07-16T08:10:02Z</time>
      </trkpt>
      <trkpt lat="50.10177" lon="3.57295">
        <ele>132.8</ele>
        <time>2017-07-16T08:10:11Z</time>
      </trkpt>
      <trkpt lat="50.10177" lon="3.57289">
        <ele>133.28</ele>
        <time>2017-07-16T08:10:12Z</time>
      </trkpt>
      <trkpt lat="50.10177" lon="3.57282">
        <ele>133.28</ele>
        <time>2017-07-16T08:10:13Z</time>
      </trkpt>
      <trkpt lat="50.10177" lon="3.57276">
        <ele>134.24</ele>
        <time>2017-07-16T08:10:14Z</time>
      </trkpt>
      <trkpt lat="50.10177" lon="3.57271">
        <ele>134.24</ele>
        <time>2017-07-16T08:10:15Z</time>
      </trkpt>
      <trkpt lat="50.10175" lon="3.57202">
        <ele>135.68</ele>
        <time>2017-07-16T08:10:29Z</time>
      </trkpt>
      <trkpt lat="50.10157" lon="3.57144">
        <ele>137.13</ele>
        <time>2017-07-16T08:10:42Z</time>
      </trkpt>
      <trkpt lat="50.1012" lon="3.57062">
        <ele>138.09</ele>
        <time>2017-07-16T08:10:59Z</time>
      </trkpt>
      <trkpt lat="50.10115" lon="3.57008">
        <ele>139.05</ele>
        <time>2017-07-16T08:11:10Z</time>
      </trkpt>
      <trkpt lat="50.10121" lon="3.57">
        <ele>139.05</ele>
        <time>2017-07-16T08:11:12Z</time>
      </trkpt>
      <trkpt lat="50.10125" lon="3.56997">
        <ele>139.05</ele>
        <time>2017-07-16T08:11:13Z</time>
      </trkpt>
      <trkpt lat="50.10129" lon="3.56994">
        <ele>139.53</ele>
        <time>2017-07-16T08:11:14Z</time>
      </trkpt>
      <trkpt lat="50.10187" lon="3.5693">
        <ele>140.97</ele>
        <time>2017-07-16T08:11:31Z</time>
      </trkpt>
      <trkpt lat="50.1019" lon="3.56927">
        <ele>140.97</ele>
        <time>2017-07-16T08:11:32Z</time>
      </trkpt>
      <trkpt lat="50.10236" lon="3.56876">
        <ele>143.37</ele>
        <time>2017-07-16T08:11:45Z</time>
      </trkpt>
      <trkpt lat="50.10239" lon="3.56872">
        <ele>143.37</ele>
        <time>2017-07-16T08:11:46Z</time>
      </trkpt>
      <trkpt lat="50.10297" lon="3.5681">
        <ele>144.82</ele>
        <time>2017-07-16T08:12:01Z</time>
      </trkpt>
      <trkpt lat="50.10301" lon="3.56806">
        <ele>144.82</ele>
        <time>2017-07-16T08:12:02Z</time>
      </trkpt>
      <trkpt lat="50.10344" lon="3.56754">
        <ele>146.26</ele>
        <time>2017-07-16T08:12:15Z</time>
      </trkpt>
      <trkpt lat="50.10405" lon="3.56687">
        <ele>145.3</ele>
        <time>2017-07-16T08:12:32Z</time>
      </trkpt>
      <trkpt lat="50.10445" lon="3.56642">
        <ele>141.93</ele>
        <time>2017-07-16T08:12:42Z</time>
      </trkpt>
      <trkpt lat="50.10449" lon="3.56636">
        <ele>141.93</ele>
        <time>2017-07-16T08:12:45Z</time>
      </trkpt>
      <trkpt lat="50.1045" lon="3.56631">
        <ele>141.45</ele>
        <time>2017-07-16T08:12:46Z</time>
      </trkpt>
      <trkpt lat="50.10448" lon="3.56625">
        <ele>141.93</ele>
        <time>2017-07-16T08:12:47Z</time>
      </trkpt>
      <trkpt lat="50.10447" lon="3.56621">
        <ele>141.45</ele>
        <time>2017-07-16T08:12:48Z</time>
      </trkpt>
      <trkpt lat="50.10445" lon="3.56615">
        <ele>141.45</ele>
        <time>2017-07-16T08:12:49Z</time>
      </trkpt>
      <trkpt lat="50.10442" lon="3.56609">
        <ele>141.93</ele>
        <time>2017-07-16T08:12:50Z</time>
      </trkpt>
      <trkpt lat="50.10432" lon="3.56583">
        <ele>142.89</ele>
        <time>2017-07-16T08:12:54Z</time>
      </trkpt>
      <trkpt lat="50.1041" lon="3.56524">
        <ele>144.34</ele>
        <time>2017-07-16T08:13:03Z</time>
      </trkpt>
      <trkpt lat="50.10407" lon="3.5651">
        <ele>144.34</ele>
        <time>2017-07-16T08:13:05Z</time>
      </trkpt>
      <trkpt lat="50.10384" lon="3.56373">
        <ele>144.82</ele>
        <time>2017-07-16T08:13:24Z</time>
      </trkpt>
      <trkpt lat="50.10374" lon="3.56299">
        <ele>145.3</ele>
        <time>2017-07-16T08:13:35Z</time>
      </trkpt>
      <trkpt lat="50.10377" lon="3.56229">
        <ele>146.26</ele>
        <time>2017-07-16T08:13:48Z</time>
      </trkpt>
      <trkpt lat="50.10376" lon="3.5621">
        <ele>146.26</ele>
        <time>2017-07-16T08:13:52Z</time>
      </trkpt>
      <trkpt lat="50.10374" lon="3.56207">
        <ele>146.26</ele>
        <time>2017-07-16T08:13:53Z</time>
      </trkpt>
      <trkpt lat="50.10373" lon="3.56207">
        <ele>146.26</ele>
        <time>2017-07-16T08:14:03Z</time>
      </trkpt>
      <trkpt lat="50.10373" lon="3.56208">
        <ele>146.26</ele>
        <time>2017-07-16T08:14:34Z</time>
      </trkpt>
      <trkpt lat="50.10373" lon="3.56208">
        <ele>146.26</ele>
        <time>2017-07-16T08:14:55Z</time>
      </trkpt>
      <trkpt lat="50.10373" lon="3.56208">
        <ele>146.74</ele>
        <time>2017-07-16T08:15:37Z</time>
      </trkpt>
      <trkpt lat="50.10372" lon="3.56207">
        <ele>146.74</ele>
        <time>2017-07-16T08:15:42Z</time>
      </trkpt>
      <trkpt lat="50.10365" lon="3.562">
        <ele>146.74</ele>
        <time>2017-07-16T08:15:46Z</time>
      </trkpt>
      <trkpt lat="50.10341" lon="3.56165">
        <ele>146.74</ele>
        <time>2017-07-16T08:15:58Z</time>
      </trkpt>
      <trkpt lat="50.10319" lon="3.56086">
        <ele>146.74</ele>
        <time>2017-07-16T08:16:13Z</time>
      </trkpt>
      <trkpt lat="50.1029" lon="3.55983">
        <ele>144.34</ele>
        <time>2017-07-16T08:16:28Z</time>
      </trkpt>
      <trkpt lat="50.10252" lon="3.55852">
        <ele>140.97</ele>
        <time>2017-07-16T08:16:44Z</time>
      </trkpt>
      <trkpt lat="50.10221" lon="3.55746">
        <ele>137.61</ele>
        <time>2017-07-16T08:16:55Z</time>
      </trkpt>
      <trkpt lat="50.10199" lon="3.55671">
        <ele>134.72</ele>
        <time>2017-07-16T08:17:03Z</time>
      </trkpt>
      <trkpt lat="50.10192" lon="3.55649">
        <ele>133.76</ele>
        <time>2017-07-16T08:17:06Z</time>
      </trkpt>
      <trkpt lat="50.10189" lon="3.55634">
        <ele>133.28</ele>
        <time>2017-07-16T08:17:08Z</time>
      </trkpt>
      <trkpt lat="50.10189" lon="3.55625">
        <ele>132.8</ele>
        <time>2017-07-16T08:17:09Z</time>
      </trkpt>
      <trkpt lat="50.10191" lon="3.55616">
        <ele>132.32</ele>
        <time>2017-07-16T08:17:10Z</time>
      </trkpt>
      <trkpt lat="50.10192" lon="3.55609">
        <ele>132.32</ele>
        <time>2017-07-16T08:17:11Z</time>
      </trkpt>
      <trkpt lat="50.10195" lon="3.556">
        <ele>131.84</ele>
        <time>2017-07-16T08:17:12Z</time>
      </trkpt>
      <trkpt lat="50.10215" lon="3.55531">
        <ele>129.43</ele>
        <time>2017-07-16T08:17:18Z</time>
      </trkpt>
      <trkpt lat="50.10244" lon="3.55432">
        <ele>125.59</ele>
        <time>2017-07-16T08:17:25Z</time>
      </trkpt>
      <trkpt lat="50.10273" lon="3.55337">
        <ele>122.22</ele>
        <time>2017-07-16T08:17:31Z</time>
      </trkpt>
      <trkpt lat="50.10297" lon="3.55255">
        <ele>119.34</ele>
        <time>2017-07-16T08:17:36Z</time>
      </trkpt>
      <trkpt lat="50.10313" lon="3.55208">
        <ele>117.9</ele>
        <time>2017-07-16T08:17:39Z</time>
      </trkpt>
      <trkpt lat="50.10325" lon="3.55162">
        <ele>115.98</ele>
        <time>2017-07-16T08:17:42Z</time>
      </trkpt>
      <trkpt lat="50.10341" lon="3.55041">
        <ele>113.09</ele>
        <time>2017-07-16T08:17:49Z</time>
      </trkpt>
      <trkpt lat="50.1037" lon="3.54843">
        <ele>113.09</ele>
        <time>2017-07-16T08:18:02Z</time>
      </trkpt>
      <trkpt lat="50.1038" lon="3.54809">
        <ele>114.05</ele>
        <time>2017-07-16T08:18:05Z</time>
      </trkpt>
      <trkpt lat="50.10389" lon="3.5478">
        <ele>115.5</ele>
        <time>2017-07-16T08:18:08Z</time>
      </trkpt>
      <trkpt lat="50.10391" lon="3.54772">
        <ele>115.5</ele>
        <time>2017-07-16T08:18:09Z</time>
      </trkpt>
      <trkpt lat="50.104" lon="3.54741">
        <ele>116.46</ele>
        <time>2017-07-16T08:18:13Z</time>
      </trkpt>
      <trkpt lat="50.10402" lon="3.54733">
        <ele>116.46</ele>
        <time>2017-07-16T08:18:14Z</time>
      </trkpt>
      <trkpt lat="50.10427" lon="3.54651">
        <ele>117.9</ele>
        <time>2017-07-16T08:18:26Z</time>
      </trkpt>
      <trkpt lat="50.1045" lon="3.54563">
        <ele>115.98</ele>
        <time>2017-07-16T08:18:37Z</time>
      </trkpt>
      <trkpt lat="50.10453" lon="3.54558">
        <ele>115.98</ele>
        <time>2017-07-16T08:18:38Z</time>
      </trkpt>
      <trkpt lat="50.10502" lon="3.54486">
        <ele>113.57</ele>
        <time>2017-07-16T08:18:49Z</time>
      </trkpt>
      <trkpt lat="50.10531" lon="3.54423">
        <ele>112.61</ele>
        <time>2017-07-16T08:18:57Z</time>
      </trkpt>
      <trkpt lat="50.1053" lon="3.54412">
        <ele>112.13</ele>
        <time>2017-07-16T08:18:58Z</time>
      </trkpt>
      <trkpt lat="50.10527" lon="3.54405">
        <ele>112.13</ele>
        <time>2017-07-16T08:18:59Z</time>
      </trkpt>
      <trkpt lat="50.10524" lon="3.54399">
        <ele>112.13</ele>
        <time>2017-07-16T08:19:00Z</time>
      </trkpt>
      <trkpt lat="50.10519" lon="3.54393">
        <ele>111.65</ele>
        <time>2017-07-16T08:19:01Z</time>
      </trkpt>
      <trkpt lat="50.10511" lon="3.54379">
        <ele>111.65</ele>
        <time>2017-07-16T08:19:03Z</time>
      </trkpt>
      <trkpt lat="50.10509" lon="3.54368">
        <ele>111.17</ele>
        <time>2017-07-16T08:19:04Z</time>
      </trkpt>
      <trkpt lat="50.10509" lon="3.5436">
        <ele>111.17</ele>
        <time>2017-07-16T08:19:05Z</time>
      </trkpt>
      <trkpt lat="50.1051" lon="3.54351">
        <ele>110.69</ele>
        <time>2017-07-16T08:19:06Z</time>
      </trkpt>
      <trkpt lat="50.10513" lon="3.54342">
        <ele>110.69</ele>
        <time>2017-07-16T08:19:07Z</time>
      </trkpt>
      <trkpt lat="50.10517" lon="3.54333">
        <ele>110.21</ele>
        <time>2017-07-16T08:19:08Z</time>
      </trkpt>
      <trkpt lat="50.1052" lon="3.54323">
        <ele>109.73</ele>
        <time>2017-07-16T08:19:09Z</time>
      </trkpt>
      <trkpt lat="50.10523" lon="3.54313">
        <ele>109.73</ele>
        <time>2017-07-16T08:19:10Z</time>
      </trkpt>
      <trkpt lat="50.10545" lon="3.54248">
        <ele>106.84</ele>
        <time>2017-07-16T08:19:16Z</time>
      </trkpt>
      <trkpt lat="50.10566" lon="3.54183">
        <ele>103</ele>
        <time>2017-07-16T08:19:21Z</time>
      </trkpt>
      <trkpt lat="50.10587" lon="3.54118">
        <ele>100.11</ele>
        <time>2017-07-16T08:19:26Z</time>
      </trkpt>
      <trkpt lat="50.10644" lon="3.53935">
        <ele>97.23</ele>
        <time>2017-07-16T08:19:41Z</time>
      </trkpt>
      <trkpt lat="50.1066" lon="3.53867">
        <ele>96.75</ele>
        <time>2017-07-16T08:19:47Z</time>
      </trkpt>
      <trkpt lat="50.10664" lon="3.53824">
        <ele>96.75</ele>
        <time>2017-07-16T08:19:51Z</time>
      </trkpt>
      <trkpt lat="50.10659" lon="3.53763">
        <ele>99.15</ele>
        <time>2017-07-16T08:19:57Z</time>
      </trkpt>
      <trkpt lat="50.10658" lon="3.53753">
        <ele>99.15</ele>
        <time>2017-07-16T08:19:58Z</time>
      </trkpt>
      <trkpt lat="50.10648" lon="3.53679">
        <ele>103</ele>
        <time>2017-07-16T08:20:06Z</time>
      </trkpt>
      <trkpt lat="50.10645" lon="3.53657">
        <ele>103.48</ele>
        <time>2017-07-16T08:20:09Z</time>
      </trkpt>
      <trkpt lat="50.10644" lon="3.53651">
        <ele>103.96</ele>
        <time>2017-07-16T08:20:10Z</time>
      </trkpt>
      <trkpt lat="50.10628" lon="3.53545">
        <ele>107.81</ele>
        <time>2017-07-16T08:20:29Z</time>
      </trkpt>
      <trkpt lat="50.10619" lon="3.53483">
        <ele>109.25</ele>
        <time>2017-07-16T08:20:43Z</time>
      </trkpt>
      <trkpt lat="50.10605" lon="3.53413">
        <ele>111.65</ele>
        <time>2017-07-16T08:21:01Z</time>
      </trkpt>
      <trkpt lat="50.10591" lon="3.53369">
        <ele>113.57</ele>
        <time>2017-07-16T08:21:15Z</time>
      </trkpt>
      <trkpt lat="50.10589" lon="3.53369">
        <ele>113.57</ele>
        <time>2017-07-16T08:21:16Z</time>
      </trkpt>
      <trkpt lat="50.10551" lon="3.53347">
        <ele>115.5</ele>
        <time>2017-07-16T08:21:34Z</time>
      </trkpt>
      <trkpt lat="50.10525" lon="3.533">
        <ele>117.42</ele>
        <time>2017-07-16T08:21:54Z</time>
      </trkpt>
      <trkpt lat="50.10508" lon="3.53244">
        <ele>119.82</ele>
        <time>2017-07-16T08:22:14Z</time>
      </trkpt>
      <trkpt lat="50.1049" lon="3.53191">
        <ele>122.22</ele>
        <time>2017-07-16T08:22:32Z</time>
      </trkpt>
      <trkpt lat="50.10472" lon="3.53147">
        <ele>122.71</ele>
        <time>2017-07-16T08:22:48Z</time>
      </trkpt>
      <trkpt lat="50.10458" lon="3.5311">
        <ele>124.63</ele>
        <time>2017-07-16T08:23:02Z</time>
      </trkpt>
      <trkpt lat="50.10467" lon="3.53071">
        <ele>126.07</ele>
        <time>2017-07-16T08:23:17Z</time>
      </trkpt>
      <trkpt lat="50.10491" lon="3.53049">
        <ele>127.99</ele>
        <time>2017-07-16T08:23:29Z</time>
      </trkpt>
      <trkpt lat="50.10508" lon="3.52999">
        <ele>128.95</ele>
        <time>2017-07-16T08:23:43Z</time>
      </trkpt>
      <trkpt lat="50.10503" lon="3.52946">
        <ele>130.4</ele>
        <time>2017-07-16T08:23:57Z</time>
      </trkpt>
      <trkpt lat="50.10483" lon="3.52877">
        <ele>130.88</ele>
        <time>2017-07-16T08:24:15Z</time>
      </trkpt>
      <trkpt lat="50.10466" lon="3.52822">
        <ele>131.36</ele>
        <time>2017-07-16T08:24:30Z</time>
      </trkpt>
      <trkpt lat="50.10453" lon="3.52766">
        <ele>132.8</ele>
        <time>2017-07-16T08:24:46Z</time>
      </trkpt>
      <trkpt lat="50.10439" lon="3.52714">
        <ele>134.24</ele>
        <time>2017-07-16T08:25:02Z</time>
      </trkpt>
      <trkpt lat="50.10422" lon="3.52657">
        <ele>135.2</ele>
        <time>2017-07-16T08:25:19Z</time>
      </trkpt>
      <trkpt lat="50.10404" lon="3.52602">
        <ele>136.64</ele>
        <time>2017-07-16T08:25:35Z</time>
      </trkpt>
      <trkpt lat="50.10391" lon="3.52557">
        <ele>137.13</ele>
        <time>2017-07-16T08:25:48Z</time>
      </trkpt>
      <trkpt lat="50.10379" lon="3.52491">
        <ele>138.57</ele>
        <time>2017-07-16T08:26:06Z</time>
      </trkpt>
      <trkpt lat="50.10376" lon="3.52428">
        <ele>139.53</ele>
        <time>2017-07-16T08:26:23Z</time>
      </trkpt>
      <trkpt lat="50.10382" lon="3.52383">
        <ele>138.09</ele>
        <time>2017-07-16T08:26:31Z</time>
      </trkpt>
      <trkpt lat="50.10392" lon="3.52318">
        <ele>134.72</ele>
        <time>2017-07-16T08:26:39Z</time>
      </trkpt>
      <trkpt lat="50.10408" lon="3.52237">
        <ele>132.32</ele>
        <time>2017-07-16T08:26:47Z</time>
      </trkpt>
      <trkpt lat="50.10411" lon="3.52174">
        <ele>130.88</ele>
        <time>2017-07-16T08:26:53Z</time>
      </trkpt>
      <trkpt lat="50.1041" lon="3.52164">
        <ele>130.88</ele>
        <time>2017-07-16T08:26:54Z</time>
      </trkpt>
      <trkpt lat="50.10382" lon="3.5206">
        <ele>129.43</ele>
        <time>2017-07-16T08:27:07Z</time>
      </trkpt>
      <trkpt lat="50.1038" lon="3.52053">
        <ele>129.43</ele>
        <time>2017-07-16T08:27:08Z</time>
      </trkpt>
      <trkpt lat="50.10353" lon="3.51936">
        <ele>128.95</ele>
        <time>2017-07-16T08:27:24Z</time>
      </trkpt>
      <trkpt lat="50.10348" lon="3.5184">
        <ele>128.95</ele>
        <time>2017-07-16T08:27:39Z</time>
      </trkpt>
      <trkpt lat="50.10343" lon="3.51756">
        <ele>130.4</ele>
        <time>2017-07-16T08:27:53Z</time>
      </trkpt>
      <trkpt lat="50.10342" lon="3.51648">
        <ele>131.36</ele>
        <time>2017-07-16T08:28:12Z</time>
      </trkpt>
      <trkpt lat="50.10344" lon="3.51565">
        <ele>133.28</ele>
        <time>2017-07-16T08:28:28Z</time>
      </trkpt>
      <trkpt lat="50.10345" lon="3.51521">
        <ele>135.2</ele>
        <time>2017-07-16T08:28:42Z</time>
      </trkpt>
      <trkpt lat="50.10345" lon="3.51518">
        <ele>135.2</ele>
        <time>2017-07-16T08:28:43Z</time>
      </trkpt>
      <trkpt lat="50.10344" lon="3.51515">
        <ele>135.68</ele>
        <time>2017-07-16T08:28:44Z</time>
      </trkpt>
      <trkpt lat="50.10343" lon="3.51511">
        <ele>135.68</ele>
        <time>2017-07-16T08:28:45Z</time>
      </trkpt>
      <trkpt lat="50.10342" lon="3.51508">
        <ele>136.16</ele>
        <time>2017-07-16T08:28:46Z</time>
      </trkpt>
      <trkpt lat="50.1034" lon="3.51504">
        <ele>136.16</ele>
        <time>2017-07-16T08:28:47Z</time>
      </trkpt>
      <trkpt lat="50.10338" lon="3.515">
        <ele>135.68</ele>
        <time>2017-07-16T08:28:48Z</time>
      </trkpt>
      <trkpt lat="50.10322" lon="3.51435">
        <ele>135.68</ele>
        <time>2017-07-16T08:29:02Z</time>
      </trkpt>
      <trkpt lat="50.10315" lon="3.51358">
        <ele>135.68</ele>
        <time>2017-07-16T08:29:18Z</time>
      </trkpt>
      <trkpt lat="50.10306" lon="3.51278">
        <ele>135.68</ele>
        <time>2017-07-16T08:29:35Z</time>
      </trkpt>
      <trkpt lat="50.10292" lon="3.51202">
        <ele>136.16</ele>
        <time>2017-07-16T08:29:52Z</time>
      </trkpt>
      <trkpt lat="50.10289" lon="3.51127">
        <ele>136.64</ele>
        <time>2017-07-16T08:30:07Z</time>
      </trkpt>
      <trkpt lat="50.10285" lon="3.51056">
        <ele>137.13</ele>
        <time>2017-07-16T08:30:21Z</time>
      </trkpt>
      <trkpt lat="50.10269" lon="3.5099">
        <ele>138.09</ele>
        <time>2017-07-16T08:30:36Z</time>
      </trkpt>
      <trkpt lat="50.10254" lon="3.5092">
        <ele>138.57</ele>
        <time>2017-07-16T08:30:52Z</time>
      </trkpt>
      <trkpt lat="50.10243" lon="3.50848">
        <ele>139.53</ele>
        <time>2017-07-16T08:31:07Z</time>
      </trkpt>
      <trkpt lat="50.10231" lon="3.50791">
        <ele>139.53</ele>
        <time>2017-07-16T08:31:19Z</time>
      </trkpt>
      <trkpt lat="50.10216" lon="3.5073">
        <ele>140.01</ele>
        <time>2017-07-16T08:31:33Z</time>
      </trkpt>
      <trkpt lat="50.10193" lon="3.50665">
        <ele>140.01</ele>
        <time>2017-07-16T08:31:48Z</time>
      </trkpt>
      <trkpt lat="50.10187" lon="3.50606">
        <ele>140.97</ele>
        <time>2017-07-16T08:32:00Z</time>
      </trkpt>
      <trkpt lat="50.10186" lon="3.50542">
        <ele>140.97</ele>
        <time>2017-07-16T08:32:13Z</time>
      </trkpt>
      <trkpt lat="50.10187" lon="3.50453">
        <ele>142.41</ele>
        <time>2017-07-16T08:32:31Z</time>
      </trkpt>
      <trkpt lat="50.10185" lon="3.50376">
        <ele>140.97</ele>
        <time>2017-07-16T08:32:44Z</time>
      </trkpt>
      <trkpt lat="50.10183" lon="3.50307">
        <ele>140.01</ele>
        <time>2017-07-16T08:32:58Z</time>
      </trkpt>
      <trkpt lat="50.1019" lon="3.50212">
        <ele>138.57</ele>
        <time>2017-07-16T08:33:17Z</time>
      </trkpt>
      <trkpt lat="50.102" lon="3.50109">
        <ele>137.61</ele>
        <time>2017-07-16T08:33:35Z</time>
      </trkpt>
      <trkpt lat="50.10209" lon="3.50048">
        <ele>137.61</ele>
        <time>2017-07-16T08:33:46Z</time>
      </trkpt>
      <trkpt lat="50.10218" lon="3.49987">
        <ele>137.61</ele>
        <time>2017-07-16T08:33:57Z</time>
      </trkpt>
      <trkpt lat="50.10222" lon="3.49954">
        <ele>139.05</ele>
        <time>2017-07-16T08:34:03Z</time>
      </trkpt>
      <trkpt lat="50.10232" lon="3.49885">
        <ele>139.53</ele>
        <time>2017-07-16T08:34:16Z</time>
      </trkpt>
      <trkpt lat="50.10239" lon="3.4981">
        <ele>140.01</ele>
        <time>2017-07-16T08:34:31Z</time>
      </trkpt>
      <trkpt lat="50.10249" lon="3.49722">
        <ele>136.64</ele>
        <time>2017-07-16T08:34:44Z</time>
      </trkpt>
      <trkpt lat="50.10255" lon="3.49662">
        <ele>135.2</ele>
        <time>2017-07-16T08:34:52Z</time>
      </trkpt>
      <trkpt lat="50.10256" lon="3.49655">
        <ele>135.2</ele>
        <time>2017-07-16T08:34:53Z</time>
      </trkpt>
      <trkpt lat="50.10256" lon="3.49648">
        <ele>135.2</ele>
        <time>2017-07-16T08:34:54Z</time>
      </trkpt>
      <trkpt lat="50.10257" lon="3.49641">
        <ele>135.2</ele>
        <time>2017-07-16T08:34:55Z</time>
      </trkpt>
      <trkpt lat="50.10258" lon="3.49634">
        <ele>135.2</ele>
        <time>2017-07-16T08:34:56Z</time>
      </trkpt>
      <trkpt lat="50.10257" lon="3.4956">
        <ele>134.72</ele>
        <time>2017-07-16T08:35:09Z</time>
      </trkpt>
      <trkpt lat="50.10256" lon="3.49479">
        <ele>134.72</ele>
        <time>2017-07-16T08:35:26Z</time>
      </trkpt>
      <trkpt lat="50.10253" lon="3.49408">
        <ele>134.72</ele>
        <time>2017-07-16T08:35:41Z</time>
      </trkpt>
      <trkpt lat="50.10251" lon="3.4939">
        <ele>135.68</ele>
        <time>2017-07-16T08:35:45Z</time>
      </trkpt>
      <trkpt lat="50.10243" lon="3.49341">
        <ele>136.64</ele>
        <time>2017-07-16T08:35:57Z</time>
      </trkpt>
      <trkpt lat="50.10235" lon="3.49284">
        <ele>137.61</ele>
        <time>2017-07-16T08:36:11Z</time>
      </trkpt>
      <trkpt lat="50.10223" lon="3.49217">
        <ele>137.61</ele>
        <time>2017-07-16T08:36:26Z</time>
      </trkpt>
      <trkpt lat="50.1021" lon="3.4916">
        <ele>138.09</ele>
        <time>2017-07-16T08:36:39Z</time>
      </trkpt>
      <trkpt lat="50.1021" lon="3.49088">
        <ele>138.09</ele>
        <time>2017-07-16T08:36:54Z</time>
      </trkpt>
      <trkpt lat="50.10228" lon="3.49026">
        <ele>138.09</ele>
        <time>2017-07-16T08:37:09Z</time>
      </trkpt>
      <trkpt lat="50.10253" lon="3.48968">
        <ele>138.57</ele>
        <time>2017-07-16T08:37:25Z</time>
      </trkpt>
      <trkpt lat="50.10276" lon="3.48914">
        <ele>137.13</ele>
        <time>2017-07-16T08:37:37Z</time>
      </trkpt>
      <trkpt lat="50.10284" lon="3.48829">
        <ele>135.68</ele>
        <time>2017-07-16T08:37:52Z</time>
      </trkpt>
      <trkpt lat="50.10284" lon="3.48793">
        <ele>134.72</ele>
        <time>2017-07-16T08:37:58Z</time>
      </trkpt>
      <trkpt lat="50.10265" lon="3.48721">
        <ele>134.24</ele>
        <time>2017-07-16T08:38:12Z</time>
      </trkpt>
      <trkpt lat="50.10253" lon="3.48673">
        <ele>134.24</ele>
        <time>2017-07-16T08:38:25Z</time>
      </trkpt>
      <trkpt lat="50.10254" lon="3.48652">
        <ele>134.72</ele>
        <time>2017-07-16T08:38:48Z</time>
      </trkpt>
      <trkpt lat="50.10259" lon="3.48589">
        <ele>134.72</ele>
        <time>2017-07-16T08:39:01Z</time>
      </trkpt>
      <trkpt lat="50.10255" lon="3.4853">
        <ele>133.28</ele>
        <time>2017-07-16T08:39:11Z</time>
      </trkpt>
      <trkpt lat="50.10255" lon="3.48523">
        <ele>133.28</ele>
        <time>2017-07-16T08:39:12Z</time>
      </trkpt>
      <trkpt lat="50.10254" lon="3.48516">
        <ele>132.8</ele>
        <time>2017-07-16T08:39:13Z</time>
      </trkpt>
      <trkpt lat="50.10251" lon="3.48496">
        <ele>132.32</ele>
        <time>2017-07-16T08:39:16Z</time>
      </trkpt>
      <trkpt lat="50.1025" lon="3.48488">
        <ele>132.32</ele>
        <time>2017-07-16T08:39:17Z</time>
      </trkpt>
      <trkpt lat="50.1025" lon="3.48481">
        <ele>132.32</ele>
        <time>2017-07-16T08:39:18Z</time>
      </trkpt>
      <trkpt lat="50.10248" lon="3.48453">
        <ele>130.88</ele>
        <time>2017-07-16T08:39:22Z</time>
      </trkpt>
      <trkpt lat="50.10247" lon="3.48445">
        <ele>130.88</ele>
        <time>2017-07-16T08:39:23Z</time>
      </trkpt>
      <trkpt lat="50.10247" lon="3.48438">
        <ele>130.4</ele>
        <time>2017-07-16T08:39:24Z</time>
      </trkpt>
      <trkpt lat="50.10244" lon="3.48368">
        <ele>129.43</ele>
        <time>2017-07-16T08:39:33Z</time>
      </trkpt>
      <trkpt lat="50.10258" lon="3.48256">
        <ele>126.07</ele>
        <time>2017-07-16T08:39:47Z</time>
      </trkpt>
      <trkpt lat="50.10263" lon="3.48232">
        <ele>126.07</ele>
        <time>2017-07-16T08:39:50Z</time>
      </trkpt>
      <trkpt lat="50.10266" lon="3.48224">
        <ele>125.59</ele>
        <time>2017-07-16T08:39:51Z</time>
      </trkpt>
      <trkpt lat="50.10268" lon="3.48217">
        <ele>125.11</ele>
        <time>2017-07-16T08:39:52Z</time>
      </trkpt>
      <trkpt lat="50.10294" lon="3.48095">
        <ele>124.15</ele>
        <time>2017-07-16T08:40:09Z</time>
      </trkpt>
      <trkpt lat="50.10313" lon="3.48038">
        <ele>123.67</ele>
        <time>2017-07-16T08:40:19Z</time>
      </trkpt>
      <trkpt lat="50.10341" lon="3.47976">
        <ele>123.67</ele>
        <time>2017-07-16T08:40:31Z</time>
      </trkpt>
      <trkpt lat="50.10344" lon="3.47971">
        <ele>123.67</ele>
        <time>2017-07-16T08:40:32Z</time>
      </trkpt>
      <trkpt lat="50.10347" lon="3.47966">
        <ele>123.67</ele>
        <time>2017-07-16T08:40:33Z</time>
      </trkpt>
      <trkpt lat="50.10373" lon="3.47887">
        <ele>122.71</ele>
        <time>2017-07-16T08:40:46Z</time>
      </trkpt>
      <trkpt lat="50.10374" lon="3.4788">
        <ele>122.71</ele>
        <time>2017-07-16T08:40:47Z</time>
      </trkpt>
      <trkpt lat="50.10379" lon="3.47859">
        <ele>122.22</ele>
        <time>2017-07-16T08:40:50Z</time>
      </trkpt>
      <trkpt lat="50.104" lon="3.47752">
        <ele>121.74</ele>
        <time>2017-07-16T08:41:05Z</time>
      </trkpt>
      <trkpt lat="50.1041" lon="3.47614">
        <ele>120.78</ele>
        <time>2017-07-16T08:41:24Z</time>
      </trkpt>
      <trkpt lat="50.10407" lon="3.47528">
        <ele>120.78</ele>
        <time>2017-07-16T08:41:36Z</time>
      </trkpt>
      <trkpt lat="50.10415" lon="3.47442">
        <ele>120.78</ele>
        <time>2017-07-16T08:41:49Z</time>
      </trkpt>
      <trkpt lat="50.10421" lon="3.47376">
        <ele>122.22</ele>
        <time>2017-07-16T08:41:59Z</time>
      </trkpt>
      <trkpt lat="50.10431" lon="3.47286">
        <ele>122.22</ele>
        <time>2017-07-16T08:42:13Z</time>
      </trkpt>
      <trkpt lat="50.10446" lon="3.47202">
        <ele>122.22</ele>
        <time>2017-07-16T08:42:26Z</time>
      </trkpt>
      <trkpt lat="50.10447" lon="3.47196">
        <ele>122.22</ele>
        <time>2017-07-16T08:42:27Z</time>
      </trkpt>
      <trkpt lat="50.10448" lon="3.47189">
        <ele>122.22</ele>
        <time>2017-07-16T08:42:28Z</time>
      </trkpt>
      <trkpt lat="50.10466" lon="3.47122">
        <ele>122.22</ele>
        <time>2017-07-16T08:42:38Z</time>
      </trkpt>
      <trkpt lat="50.10473" lon="3.47103">
        <ele>122.22</ele>
        <time>2017-07-16T08:42:41Z</time>
      </trkpt>
      <trkpt lat="50.10474" lon="3.47097">
        <ele>122.22</ele>
        <time>2017-07-16T08:42:42Z</time>
      </trkpt>
      <trkpt lat="50.1048" lon="3.47081">
        <ele>122.22</ele>
        <time>2017-07-16T08:42:45Z</time>
      </trkpt>
      <trkpt lat="50.10481" lon="3.47075">
        <ele>122.22</ele>
        <time>2017-07-16T08:42:46Z</time>
      </trkpt>
      <trkpt lat="50.10481" lon="3.47069">
        <ele>122.22</ele>
        <time>2017-07-16T08:42:47Z</time>
      </trkpt>
      <trkpt lat="50.1048" lon="3.47062">
        <ele>122.22</ele>
        <time>2017-07-16T08:42:48Z</time>
      </trkpt>
      <trkpt lat="50.10478" lon="3.47057">
        <ele>122.22</ele>
        <time>2017-07-16T08:42:49Z</time>
      </trkpt>
      <trkpt lat="50.10475" lon="3.47053">
        <ele>122.22</ele>
        <time>2017-07-16T08:42:50Z</time>
      </trkpt>
      <trkpt lat="50.10472" lon="3.47049">
        <ele>122.22</ele>
        <time>2017-07-16T08:42:51Z</time>
      </trkpt>
      <trkpt lat="50.10466" lon="3.4704">
        <ele>122.22</ele>
        <time>2017-07-16T08:42:53Z</time>
      </trkpt>
      <trkpt lat="50.10406" lon="3.4698">
        <ele>122.71</ele>
        <time>2017-07-16T08:43:10Z</time>
      </trkpt>
      <trkpt lat="50.10403" lon="3.46976">
        <ele>122.71</ele>
        <time>2017-07-16T08:43:11Z</time>
      </trkpt>
      <trkpt lat="50.104" lon="3.46971">
        <ele>123.19</ele>
        <time>2017-07-16T08:43:12Z</time>
      </trkpt>
      <trkpt lat="50.10398" lon="3.46966">
        <ele>123.19</ele>
        <time>2017-07-16T08:43:13Z</time>
      </trkpt>
      <trkpt lat="50.10396" lon="3.4696">
        <ele>123.19</ele>
        <time>2017-07-16T08:43:14Z</time>
      </trkpt>
      <trkpt lat="50.10394" lon="3.46954">
        <ele>123.19</ele>
        <time>2017-07-16T08:43:15Z</time>
      </trkpt>
      <trkpt lat="50.10387" lon="3.46938">
        <ele>123.67</ele>
        <time>2017-07-16T08:43:18Z</time>
      </trkpt>
      <trkpt lat="50.10383" lon="3.46926">
        <ele>123.67</ele>
        <time>2017-07-16T08:43:20Z</time>
      </trkpt>
      <trkpt lat="50.10375" lon="3.46911">
        <ele>123.67</ele>
        <time>2017-07-16T08:43:23Z</time>
      </trkpt>
      <trkpt lat="50.10372" lon="3.46906">
        <ele>124.15</ele>
        <time>2017-07-16T08:43:24Z</time>
      </trkpt>
      <trkpt lat="50.10368" lon="3.46902">
        <ele>124.15</ele>
        <time>2017-07-16T08:43:25Z</time>
      </trkpt>
      <trkpt lat="50.10365" lon="3.46898">
        <ele>124.15</ele>
        <time>2017-07-16T08:43:26Z</time>
      </trkpt>
      <trkpt lat="50.10361" lon="3.46895">
        <ele>124.15</ele>
        <time>2017-07-16T08:43:27Z</time>
      </trkpt>
      <trkpt lat="50.10353" lon="3.46888">
        <ele>124.63</ele>
        <time>2017-07-16T08:43:29Z</time>
      </trkpt>
      <trkpt lat="50.10346" lon="3.46883">
        <ele>125.11</ele>
        <time>2017-07-16T08:43:31Z</time>
      </trkpt>
      <trkpt lat="50.10281" lon="3.4686">
        <ele>126.07</ele>
        <time>2017-07-16T08:43:47Z</time>
      </trkpt>
      <trkpt lat="50.10238" lon="3.46847">
        <ele>127.03</ele>
        <time>2017-07-16T08:43:57Z</time>
      </trkpt>
      <trkpt lat="50.10234" lon="3.46843">
        <ele>127.03</ele>
        <time>2017-07-16T08:43:58Z</time>
      </trkpt>
      <trkpt lat="50.10205" lon="3.46807">
        <ele>127.99</ele>
        <time>2017-07-16T08:44:07Z</time>
      </trkpt>
      <trkpt lat="50.10203" lon="3.46801">
        <ele>127.99</ele>
        <time>2017-07-16T08:44:08Z</time>
      </trkpt>
      <trkpt lat="50.10201" lon="3.46794">
        <ele>128.47</ele>
        <time>2017-07-16T08:44:09Z</time>
      </trkpt>
      <trkpt lat="50.102" lon="3.46781">
        <ele>128.47</ele>
        <time>2017-07-16T08:44:11Z</time>
      </trkpt>
      <trkpt lat="50.102" lon="3.46774">
        <ele>128.47</ele>
        <time>2017-07-16T08:44:12Z</time>
      </trkpt>
      <trkpt lat="50.10207" lon="3.46695">
        <ele>129.43</ele>
        <time>2017-07-16T08:44:25Z</time>
      </trkpt>
      <trkpt lat="50.10209" lon="3.46681">
        <ele>129.43</ele>
        <time>2017-07-16T08:44:27Z</time>
      </trkpt>
      <trkpt lat="50.10215" lon="3.46649">
        <ele>127.99</ele>
        <time>2017-07-16T08:44:31Z</time>
      </trkpt>
      <trkpt lat="50.10218" lon="3.46632">
        <ele>127.51</ele>
        <time>2017-07-16T08:44:33Z</time>
      </trkpt>
      <trkpt lat="50.1022" lon="3.46623">
        <ele>127.03</ele>
        <time>2017-07-16T08:44:34Z</time>
      </trkpt>
      <trkpt lat="50.10222" lon="3.46614">
        <ele>127.03</ele>
        <time>2017-07-16T08:44:35Z</time>
      </trkpt>
      <trkpt lat="50.10232" lon="3.46557">
        <ele>125.59</ele>
        <time>2017-07-16T08:44:41Z</time>
      </trkpt>
      <trkpt lat="50.10234" lon="3.46547">
        <ele>125.59</ele>
        <time>2017-07-16T08:44:42Z</time>
      </trkpt>
      <trkpt lat="50.10236" lon="3.46538">
        <ele>125.59</ele>
        <time>2017-07-16T08:44:43Z</time>
      </trkpt>
      <trkpt lat="50.10242" lon="3.4648">
        <ele>124.63</ele>
        <time>2017-07-16T08:44:49Z</time>
      </trkpt>
      <trkpt lat="50.10242" lon="3.46471">
        <ele>124.63</ele>
        <time>2017-07-16T08:44:50Z</time>
      </trkpt>
      <trkpt lat="50.10242" lon="3.46444">
        <ele>124.63</ele>
        <time>2017-07-16T08:44:53Z</time>
      </trkpt>
      <trkpt lat="50.10242" lon="3.46344">
        <ele>124.63</ele>
        <time>2017-07-16T08:45:06Z</time>
      </trkpt>
      <trkpt lat="50.10242" lon="3.46337">
        <ele>124.63</ele>
        <time>2017-07-16T08:45:07Z</time>
      </trkpt>
      <trkpt lat="50.10242" lon="3.46304">
        <ele>126.07</ele>
        <time>2017-07-16T08:45:12Z</time>
      </trkpt>
      <trkpt lat="50.10245" lon="3.46249">
        <ele>127.99</ele>
        <time>2017-07-16T08:45:22Z</time>
      </trkpt>
      <trkpt lat="50.10246" lon="3.46242">
        <ele>127.99</ele>
        <time>2017-07-16T08:45:23Z</time>
      </trkpt>
      <trkpt lat="50.10256" lon="3.46189">
        <ele>128.47</ele>
        <time>2017-07-16T08:45:32Z</time>
      </trkpt>
      <trkpt lat="50.10259" lon="3.46175">
        <ele>128.47</ele>
        <time>2017-07-16T08:45:34Z</time>
      </trkpt>
      <trkpt lat="50.10261" lon="3.46168">
        <ele>128.47</ele>
        <time>2017-07-16T08:45:35Z</time>
      </trkpt>
      <trkpt lat="50.10266" lon="3.46154">
        <ele>128.47</ele>
        <time>2017-07-16T08:45:37Z</time>
      </trkpt>
      <trkpt lat="50.10275" lon="3.46126">
        <ele>127.51</ele>
        <time>2017-07-16T08:45:41Z</time>
      </trkpt>
      <trkpt lat="50.10282" lon="3.46106">
        <ele>127.51</ele>
        <time>2017-07-16T08:45:44Z</time>
      </trkpt>
      <trkpt lat="50.10332" lon="3.46013">
        <ele>125.59</ele>
        <time>2017-07-16T08:45:59Z</time>
      </trkpt>
      <trkpt lat="50.1038" lon="3.45916">
        <ele>127.03</ele>
        <time>2017-07-16T08:46:15Z</time>
      </trkpt>
      <trkpt lat="50.10383" lon="3.45911">
        <ele>127.03</ele>
        <time>2017-07-16T08:46:16Z</time>
      </trkpt>
      <trkpt lat="50.10418" lon="3.45848">
        <ele>127.51</ele>
        <time>2017-07-16T08:46:27Z</time>
      </trkpt>
      <trkpt lat="50.10421" lon="3.45843">
        <ele>127.51</ele>
        <time>2017-07-16T08:46:28Z</time>
      </trkpt>
      <trkpt lat="50.10425" lon="3.45837">
        <ele>127.51</ele>
        <time>2017-07-16T08:46:29Z</time>
      </trkpt>
      <trkpt lat="50.10429" lon="3.45831">
        <ele>127.51</ele>
        <time>2017-07-16T08:46:30Z</time>
      </trkpt>
      <trkpt lat="50.10432" lon="3.45825">
        <ele>128.47</ele>
        <time>2017-07-16T08:46:31Z</time>
      </trkpt>
      <trkpt lat="50.10452" lon="3.45799">
        <ele>128.95</ele>
        <time>2017-07-16T08:46:36Z</time>
      </trkpt>
      <trkpt lat="50.10456" lon="3.45795">
        <ele>128.95</ele>
        <time>2017-07-16T08:46:37Z</time>
      </trkpt>
      <trkpt lat="50.10487" lon="3.45771">
        <ele>129.92</ele>
        <time>2017-07-16T08:46:44Z</time>
      </trkpt>
      <trkpt lat="50.10491" lon="3.45769">
        <ele>129.43</ele>
        <time>2017-07-16T08:46:45Z</time>
      </trkpt>
      <trkpt lat="50.10509" lon="3.45761">
        <ele>129.92</ele>
        <time>2017-07-16T08:46:49Z</time>
      </trkpt>
      <trkpt lat="50.10556" lon="3.4572">
        <ele>129.92</ele>
        <time>2017-07-16T08:47:00Z</time>
      </trkpt>
      <trkpt lat="50.1056" lon="3.45714">
        <ele>129.92</ele>
        <time>2017-07-16T08:47:01Z</time>
      </trkpt>
      <trkpt lat="50.1057" lon="3.45696">
        <ele>128.47</ele>
        <time>2017-07-16T08:47:04Z</time>
      </trkpt>
      <trkpt lat="50.10606" lon="3.45629">
        <ele>127.99</ele>
        <time>2017-07-16T08:47:15Z</time>
      </trkpt>
      <trkpt lat="50.10613" lon="3.45603">
        <ele>127.51</ele>
        <time>2017-07-16T08:47:19Z</time>
      </trkpt>
      <trkpt lat="50.10616" lon="3.45585">
        <ele>127.51</ele>
        <time>2017-07-16T08:47:22Z</time>
      </trkpt>
      <trkpt lat="50.10617" lon="3.45579">
        <ele>127.51</ele>
        <time>2017-07-16T08:47:23Z</time>
      </trkpt>
      <trkpt lat="50.10619" lon="3.45567">
        <ele>127.51</ele>
        <time>2017-07-16T08:47:25Z</time>
      </trkpt>
      <trkpt lat="50.1062" lon="3.45561">
        <ele>127.51</ele>
        <time>2017-07-16T08:47:26Z</time>
      </trkpt>
      <trkpt lat="50.10632" lon="3.4547">
        <ele>127.51</ele>
        <time>2017-07-16T08:47:41Z</time>
      </trkpt>
      <trkpt lat="50.10661" lon="3.45371">
        <ele>126.55</ele>
        <time>2017-07-16T08:47:57Z</time>
      </trkpt>
      <trkpt lat="50.10663" lon="3.45364">
        <ele>126.55</ele>
        <time>2017-07-16T08:47:58Z</time>
      </trkpt>
      <trkpt lat="50.10666" lon="3.45358">
        <ele>126.55</ele>
        <time>2017-07-16T08:47:59Z</time>
      </trkpt>
      <trkpt lat="50.10669" lon="3.45353">
        <ele>126.55</ele>
        <time>2017-07-16T08:48:00Z</time>
      </trkpt>
      <trkpt lat="50.10671" lon="3.45347">
        <ele>126.55</ele>
        <time>2017-07-16T08:48:01Z</time>
      </trkpt>
      <trkpt lat="50.10674" lon="3.4534">
        <ele>126.55</ele>
        <time>2017-07-16T08:48:02Z</time>
      </trkpt>
      <trkpt lat="50.10676" lon="3.45334">
        <ele>126.55</ele>
        <time>2017-07-16T08:48:03Z</time>
      </trkpt>
      <trkpt lat="50.10682" lon="3.45317">
        <ele>126.55</ele>
        <time>2017-07-16T08:48:06Z</time>
      </trkpt>
      <trkpt lat="50.10735" lon="3.45216">
        <ele>125.59</ele>
        <time>2017-07-16T08:48:25Z</time>
      </trkpt>
      <trkpt lat="50.10772" lon="3.45144">
        <ele>125.11</ele>
        <time>2017-07-16T08:48:40Z</time>
      </trkpt>
      <trkpt lat="50.10803" lon="3.45101">
        <ele>125.11</ele>
        <time>2017-07-16T08:48:51Z</time>
      </trkpt>
      <trkpt lat="50.10807" lon="3.45098">
        <ele>125.11</ele>
        <time>2017-07-16T08:48:52Z</time>
      </trkpt>
      <trkpt lat="50.1081" lon="3.45094">
        <ele>125.11</ele>
        <time>2017-07-16T08:48:53Z</time>
      </trkpt>
      <trkpt lat="50.10836" lon="3.45067">
        <ele>125.11</ele>
        <time>2017-07-16T08:49:01Z</time>
      </trkpt>
      <trkpt lat="50.1084" lon="3.45062">
        <ele>125.11</ele>
        <time>2017-07-16T08:49:02Z</time>
      </trkpt>
      <trkpt lat="50.10843" lon="3.45059">
        <ele>125.11</ele>
        <time>2017-07-16T08:49:03Z</time>
      </trkpt>
      <trkpt lat="50.10862" lon="3.45034">
        <ele>125.11</ele>
        <time>2017-07-16T08:49:09Z</time>
      </trkpt>
      <trkpt lat="50.10865" lon="3.45029">
        <ele>125.11</ele>
        <time>2017-07-16T08:49:10Z</time>
      </trkpt>
      <trkpt lat="50.10868" lon="3.45025">
        <ele>124.63</ele>
        <time>2017-07-16T08:49:11Z</time>
      </trkpt>
      <trkpt lat="50.10909" lon="3.44982">
        <ele>124.63</ele>
        <time>2017-07-16T08:49:25Z</time>
      </trkpt>
      <trkpt lat="50.10962" lon="3.44943">
        <ele>124.63</ele>
        <time>2017-07-16T08:49:41Z</time>
      </trkpt>
      <trkpt lat="50.11006" lon="3.44905">
        <ele>124.63</ele>
        <time>2017-07-16T08:49:55Z</time>
      </trkpt>
      <trkpt lat="50.11024" lon="3.4485">
        <ele>124.15</ele>
        <time>2017-07-16T08:50:05Z</time>
      </trkpt>
      <trkpt lat="50.11027" lon="3.44838">
        <ele>124.15</ele>
        <time>2017-07-16T08:50:07Z</time>
      </trkpt>
      <trkpt lat="50.11028" lon="3.44831">
        <ele>124.15</ele>
        <time>2017-07-16T08:50:08Z</time>
      </trkpt>
      <trkpt lat="50.11029" lon="3.44825">
        <ele>124.15</ele>
        <time>2017-07-16T08:50:09Z</time>
      </trkpt>
      <trkpt lat="50.1104" lon="3.44764">
        <ele>123.67</ele>
        <time>2017-07-16T08:50:19Z</time>
      </trkpt>
      <trkpt lat="50.11049" lon="3.44727">
        <ele>123.67</ele>
        <time>2017-07-16T08:50:25Z</time>
      </trkpt>
      <trkpt lat="50.11055" lon="3.44684">
        <ele>123.67</ele>
        <time>2017-07-16T08:50:32Z</time>
      </trkpt>
      <trkpt lat="50.11056" lon="3.44677">
        <ele>123.67</ele>
        <time>2017-07-16T08:50:33Z</time>
      </trkpt>
      <trkpt lat="50.11057" lon="3.44671">
        <ele>123.67</ele>
        <time>2017-07-16T08:50:34Z</time>
      </trkpt>
      <trkpt lat="50.11059" lon="3.44665">
        <ele>123.67</ele>
        <time>2017-07-16T08:50:35Z</time>
      </trkpt>
      <trkpt lat="50.1106" lon="3.44659">
        <ele>123.67</ele>
        <time>2017-07-16T08:50:36Z</time>
      </trkpt>
      <trkpt lat="50.11061" lon="3.44653">
        <ele>123.67</ele>
        <time>2017-07-16T08:50:37Z</time>
      </trkpt>
      <trkpt lat="50.11063" lon="3.44647">
        <ele>123.67</ele>
        <time>2017-07-16T08:50:38Z</time>
      </trkpt>
      <trkpt lat="50.11067" lon="3.44622">
        <ele>123.67</ele>
        <time>2017-07-16T08:50:42Z</time>
      </trkpt>
      <trkpt lat="50.11067" lon="3.44615">
        <ele>123.67</ele>
        <time>2017-07-16T08:50:43Z</time>
      </trkpt>
      <trkpt lat="50.11067" lon="3.44608">
        <ele>123.67</ele>
        <time>2017-07-16T08:50:44Z</time>
      </trkpt>
      <trkpt lat="50.11065" lon="3.44602">
        <ele>123.67</ele>
        <time>2017-07-16T08:50:45Z</time>
      </trkpt>
      <trkpt lat="50.11063" lon="3.44596">
        <ele>123.67</ele>
        <time>2017-07-16T08:50:46Z</time>
      </trkpt>
      <trkpt lat="50.11061" lon="3.4459">
        <ele>123.67</ele>
        <time>2017-07-16T08:50:47Z</time>
      </trkpt>
      <trkpt lat="50.1106" lon="3.44584">
        <ele>123.67</ele>
        <time>2017-07-16T08:50:48Z</time>
      </trkpt>
      <trkpt lat="50.11059" lon="3.44578">
        <ele>123.67</ele>
        <time>2017-07-16T08:50:49Z</time>
      </trkpt>
      <trkpt lat="50.11058" lon="3.44572">
        <ele>123.67</ele>
        <time>2017-07-16T08:50:50Z</time>
      </trkpt>
      <trkpt lat="50.11057" lon="3.4454">
        <ele>123.67</ele>
        <time>2017-07-16T08:50:55Z</time>
      </trkpt>
      <trkpt lat="50.11058" lon="3.44533">
        <ele>123.67</ele>
        <time>2017-07-16T08:50:56Z</time>
      </trkpt>
      <trkpt lat="50.11058" lon="3.44527">
        <ele>123.67</ele>
        <time>2017-07-16T08:50:57Z</time>
      </trkpt>
      <trkpt lat="50.11068" lon="3.44408">
        <ele>123.19</ele>
        <time>2017-07-16T08:51:14Z</time>
      </trkpt>
      <trkpt lat="50.1107" lon="3.44372">
        <ele>122.71</ele>
        <time>2017-07-16T08:51:19Z</time>
      </trkpt>
      <trkpt lat="50.11071" lon="3.44321">
        <ele>122.22</ele>
        <time>2017-07-16T08:51:26Z</time>
      </trkpt>
      <trkpt lat="50.11071" lon="3.44314">
        <ele>122.22</ele>
        <time>2017-07-16T08:51:27Z</time>
      </trkpt>
      <trkpt lat="50.11073" lon="3.44198">
        <ele>122.22</ele>
        <time>2017-07-16T08:51:43Z</time>
      </trkpt>
      <trkpt lat="50.11073" lon="3.44069">
        <ele>122.22</ele>
        <time>2017-07-16T08:52:02Z</time>
      </trkpt>
      <trkpt lat="50.11072" lon="3.44056">
        <ele>122.22</ele>
        <time>2017-07-16T08:52:04Z</time>
      </trkpt>
      <trkpt lat="50.11063" lon="3.43982">
        <ele>123.19</ele>
        <time>2017-07-16T08:52:17Z</time>
      </trkpt>
      <trkpt lat="50.11059" lon="3.43901">
        <ele>123.67</ele>
        <time>2017-07-16T08:52:31Z</time>
      </trkpt>
      <trkpt lat="50.11056" lon="3.43849">
        <ele>124.15</ele>
        <time>2017-07-16T08:52:40Z</time>
      </trkpt>
      <trkpt lat="50.11056" lon="3.43834">
        <ele>124.15</ele>
        <time>2017-07-16T08:52:42Z</time>
      </trkpt>
      <trkpt lat="50.11056" lon="3.43827">
        <ele>124.15</ele>
        <time>2017-07-16T08:52:43Z</time>
      </trkpt>
      <trkpt lat="50.11059" lon="3.43761">
        <ele>124.63</ele>
        <time>2017-07-16T08:52:52Z</time>
      </trkpt>
      <trkpt lat="50.11058" lon="3.43754">
        <ele>124.63</ele>
        <time>2017-07-16T08:52:53Z</time>
      </trkpt>
      <trkpt lat="50.11057" lon="3.43747">
        <ele>124.63</ele>
        <time>2017-07-16T08:52:54Z</time>
      </trkpt>
      <trkpt lat="50.11058" lon="3.43724">
        <ele>124.63</ele>
        <time>2017-07-16T08:52:57Z</time>
      </trkpt>
      <trkpt lat="50.1106" lon="3.43717">
        <ele>124.63</ele>
        <time>2017-07-16T08:52:58Z</time>
      </trkpt>
      <trkpt lat="50.1106" lon="3.43709">
        <ele>124.63</ele>
        <time>2017-07-16T08:52:59Z</time>
      </trkpt>
      <trkpt lat="50.1106" lon="3.43701">
        <ele>124.63</ele>
        <time>2017-07-16T08:53:00Z</time>
      </trkpt>
      <trkpt lat="50.11059" lon="3.43693">
        <ele>124.63</ele>
        <time>2017-07-16T08:53:01Z</time>
      </trkpt>
      <trkpt lat="50.11059" lon="3.43686">
        <ele>124.63</ele>
        <time>2017-07-16T08:53:02Z</time>
      </trkpt>
      <trkpt lat="50.1106" lon="3.43678">
        <ele>124.63</ele>
        <time>2017-07-16T08:53:03Z</time>
      </trkpt>
      <trkpt lat="50.11061" lon="3.43671">
        <ele>124.63</ele>
        <time>2017-07-16T08:53:04Z</time>
      </trkpt>
      <trkpt lat="50.11063" lon="3.43641">
        <ele>124.63</ele>
        <time>2017-07-16T08:53:08Z</time>
      </trkpt>
      <trkpt lat="50.11063" lon="3.43626">
        <ele>123.19</ele>
        <time>2017-07-16T08:53:10Z</time>
      </trkpt>
      <trkpt lat="50.11065" lon="3.43583">
        <ele>122.71</ele>
        <time>2017-07-16T08:53:15Z</time>
      </trkpt>
      <trkpt lat="50.11066" lon="3.43528">
        <ele>121.74</ele>
        <time>2017-07-16T08:53:21Z</time>
      </trkpt>
      <trkpt lat="50.11067" lon="3.43519">
        <ele>121.74</ele>
        <time>2017-07-16T08:53:22Z</time>
      </trkpt>
      <trkpt lat="50.11068" lon="3.4351">
        <ele>121.74</ele>
        <time>2017-07-16T08:53:23Z</time>
      </trkpt>
      <trkpt lat="50.11074" lon="3.43452">
        <ele>120.78</ele>
        <time>2017-07-16T08:53:29Z</time>
      </trkpt>
      <trkpt lat="50.11094" lon="3.4336">
        <ele>120.3</ele>
        <time>2017-07-16T08:53:39Z</time>
      </trkpt>
      <trkpt lat="50.11097" lon="3.43352">
        <ele>120.3</ele>
        <time>2017-07-16T08:53:40Z</time>
      </trkpt>
      <trkpt lat="50.11142" lon="3.43252">
        <ele>120.3</ele>
        <time>2017-07-16T08:53:54Z</time>
      </trkpt>
      <trkpt lat="50.11145" lon="3.43246">
        <ele>120.3</ele>
        <time>2017-07-16T08:53:55Z</time>
      </trkpt>
      <trkpt lat="50.11148" lon="3.43239">
        <ele>120.3</ele>
        <time>2017-07-16T08:53:56Z</time>
      </trkpt>
      <trkpt lat="50.11152" lon="3.43232">
        <ele>120.3</ele>
        <time>2017-07-16T08:53:57Z</time>
      </trkpt>
      <trkpt lat="50.11156" lon="3.43224">
        <ele>120.3</ele>
        <time>2017-07-16T08:53:58Z</time>
      </trkpt>
      <trkpt lat="50.11159" lon="3.43217">
        <ele>120.3</ele>
        <time>2017-07-16T08:53:59Z</time>
      </trkpt>
      <trkpt lat="50.11171" lon="3.43185">
        <ele>121.74</ele>
        <time>2017-07-16T08:54:03Z</time>
      </trkpt>
      <trkpt lat="50.11182" lon="3.43151">
        <ele>122.22</ele>
        <time>2017-07-16T08:54:08Z</time>
      </trkpt>
      <trkpt lat="50.11184" lon="3.43145">
        <ele>122.22</ele>
        <time>2017-07-16T08:54:09Z</time>
      </trkpt>
      <trkpt lat="50.11195" lon="3.43112">
        <ele>123.19</ele>
        <time>2017-07-16T08:54:14Z</time>
      </trkpt>
      <trkpt lat="50.11198" lon="3.43105">
        <ele>123.19</ele>
        <time>2017-07-16T08:54:15Z</time>
      </trkpt>
      <trkpt lat="50.11216" lon="3.43052">
        <ele>126.07</ele>
        <time>2017-07-16T08:54:26Z</time>
      </trkpt>
      <trkpt lat="50.11234" lon="3.42997">
        <ele>128.95</ele>
        <time>2017-07-16T08:54:40Z</time>
      </trkpt>
      <trkpt lat="50.11243" lon="3.42968">
        <ele>129.43</ele>
        <time>2017-07-16T08:54:50Z</time>
      </trkpt>
      <trkpt lat="50.11242" lon="3.42964">
        <ele>129.43</ele>
        <time>2017-07-16T08:54:51Z</time>
      </trkpt>
      <trkpt lat="50.11241" lon="3.4296">
        <ele>129.43</ele>
        <time>2017-07-16T08:54:52Z</time>
      </trkpt>
      <trkpt lat="50.11239" lon="3.42956">
        <ele>129.43</ele>
        <time>2017-07-16T08:54:53Z</time>
      </trkpt>
      <trkpt lat="50.11236" lon="3.42952">
        <ele>129.43</ele>
        <time>2017-07-16T08:54:54Z</time>
      </trkpt>
      <trkpt lat="50.11233" lon="3.42948">
        <ele>129.43</ele>
        <time>2017-07-16T08:54:55Z</time>
      </trkpt>
      <trkpt lat="50.1123" lon="3.42944">
        <ele>129.43</ele>
        <time>2017-07-16T08:54:56Z</time>
      </trkpt>
      <trkpt lat="50.11226" lon="3.4294">
        <ele>129.43</ele>
        <time>2017-07-16T08:54:57Z</time>
      </trkpt>
      <trkpt lat="50.11222" lon="3.42937">
        <ele>129.43</ele>
        <time>2017-07-16T08:54:58Z</time>
      </trkpt>
      <trkpt lat="50.11218" lon="3.42933">
        <ele>129.43</ele>
        <time>2017-07-16T08:54:59Z</time>
      </trkpt>
      <trkpt lat="50.11213" lon="3.4293">
        <ele>129.43</ele>
        <time>2017-07-16T08:55:00Z</time>
      </trkpt>
      <trkpt lat="50.11204" lon="3.42923">
        <ele>127.99</ele>
        <time>2017-07-16T08:55:02Z</time>
      </trkpt>
      <trkpt lat="50.11162" lon="3.4289">
        <ele>125.59</ele>
        <time>2017-07-16T08:55:10Z</time>
      </trkpt>
      <trkpt lat="50.11146" lon="3.42871">
        <ele>125.11</ele>
        <time>2017-07-16T08:55:13Z</time>
      </trkpt>
      <trkpt lat="50.11128" lon="3.42839">
        <ele>124.15</ele>
        <time>2017-07-16T08:55:17Z</time>
      </trkpt>
      <trkpt lat="50.11125" lon="3.4283">
        <ele>123.67</ele>
        <time>2017-07-16T08:55:18Z</time>
      </trkpt>
      <trkpt lat="50.11123" lon="3.42819">
        <ele>123.67</ele>
        <time>2017-07-16T08:55:19Z</time>
      </trkpt>
      <trkpt lat="50.11121" lon="3.42808">
        <ele>123.19</ele>
        <time>2017-07-16T08:55:20Z</time>
      </trkpt>
      <trkpt lat="50.11121" lon="3.42795">
        <ele>123.19</ele>
        <time>2017-07-16T08:55:21Z</time>
      </trkpt>
      <trkpt lat="50.11121" lon="3.42786">
        <ele>123.19</ele>
        <time>2017-07-16T08:55:22Z</time>
      </trkpt>
      <trkpt lat="50.11122" lon="3.42776">
        <ele>123.19</ele>
        <time>2017-07-16T08:55:23Z</time>
      </trkpt>
      <trkpt lat="50.11123" lon="3.42765">
        <ele>123.19</ele>
        <time>2017-07-16T08:55:24Z</time>
      </trkpt>
      <trkpt lat="50.11125" lon="3.42756">
        <ele>124.63</ele>
        <time>2017-07-16T08:55:25Z</time>
      </trkpt>
      <trkpt lat="50.11127" lon="3.42747">
        <ele>124.63</ele>
        <time>2017-07-16T08:55:26Z</time>
      </trkpt>
      <trkpt lat="50.11149" lon="3.42655">
        <ele>127.51</ele>
        <time>2017-07-16T08:55:40Z</time>
      </trkpt>
      <trkpt lat="50.1117" lon="3.42558">
        <ele>129.92</ele>
        <time>2017-07-16T08:55:58Z</time>
      </trkpt>
      <trkpt lat="50.11189" lon="3.42471">
        <ele>132.32</ele>
        <time>2017-07-16T08:56:14Z</time>
      </trkpt>
      <trkpt lat="50.1121" lon="3.42379">
        <ele>133.76</ele>
        <time>2017-07-16T08:56:32Z</time>
      </trkpt>
      <trkpt lat="50.11227" lon="3.42304">
        <ele>135.2</ele>
        <time>2017-07-16T08:56:46Z</time>
      </trkpt>
      <trkpt lat="50.11251" lon="3.42199">
        <ele>136.16</ele>
        <time>2017-07-16T08:57:03Z</time>
      </trkpt>
      <trkpt lat="50.11252" lon="3.42192">
        <ele>135.68</ele>
        <time>2017-07-16T08:57:04Z</time>
      </trkpt>
      <trkpt lat="50.11253" lon="3.42186">
        <ele>135.68</ele>
        <time>2017-07-16T08:57:05Z</time>
      </trkpt>
      <trkpt lat="50.11255" lon="3.42179">
        <ele>135.68</ele>
        <time>2017-07-16T08:57:06Z</time>
      </trkpt>
      <trkpt lat="50.11256" lon="3.42173">
        <ele>135.68</ele>
        <time>2017-07-16T08:57:07Z</time>
      </trkpt>
      <trkpt lat="50.11258" lon="3.42166">
        <ele>135.68</ele>
        <time>2017-07-16T08:57:08Z</time>
      </trkpt>
      <trkpt lat="50.11282" lon="3.42054">
        <ele>136.16</ele>
        <time>2017-07-16T08:57:24Z</time>
      </trkpt>
      <trkpt lat="50.11283" lon="3.42047">
        <ele>136.64</ele>
        <time>2017-07-16T08:57:25Z</time>
      </trkpt>
      <trkpt lat="50.11285" lon="3.42041">
        <ele>136.64</ele>
        <time>2017-07-16T08:57:26Z</time>
      </trkpt>
      <trkpt lat="50.11287" lon="3.42035">
        <ele>136.64</ele>
        <time>2017-07-16T08:57:27Z</time>
      </trkpt>
      <trkpt lat="50.11289" lon="3.42029">
        <ele>136.64</ele>
        <time>2017-07-16T08:57:28Z</time>
      </trkpt>
      <trkpt lat="50.1129" lon="3.42022">
        <ele>136.64</ele>
        <time>2017-07-16T08:57:29Z</time>
      </trkpt>
      <trkpt lat="50.11295" lon="3.41995">
        <ele>136.64</ele>
        <time>2017-07-16T08:57:33Z</time>
      </trkpt>
      <trkpt lat="50.11326" lon="3.41859">
        <ele>134.24</ele>
        <time>2017-07-16T08:57:49Z</time>
      </trkpt>
      <trkpt lat="50.11331" lon="3.41831">
        <ele>133.76</ele>
        <time>2017-07-16T08:57:52Z</time>
      </trkpt>
      <trkpt lat="50.11331" lon="3.41821">
        <ele>133.76</ele>
        <time>2017-07-16T08:57:53Z</time>
      </trkpt>
      <trkpt lat="50.11331" lon="3.41811">
        <ele>133.76</ele>
        <time>2017-07-16T08:57:54Z</time>
      </trkpt>
      <trkpt lat="50.1133" lon="3.41801">
        <ele>133.76</ele>
        <time>2017-07-16T08:57:55Z</time>
      </trkpt>
      <trkpt lat="50.11328" lon="3.41792">
        <ele>133.76</ele>
        <time>2017-07-16T08:57:56Z</time>
      </trkpt>
      <trkpt lat="50.11325" lon="3.41783">
        <ele>133.76</ele>
        <time>2017-07-16T08:57:57Z</time>
      </trkpt>
      <trkpt lat="50.11322" lon="3.41775">
        <ele>133.76</ele>
        <time>2017-07-16T08:57:58Z</time>
      </trkpt>
      <trkpt lat="50.11319" lon="3.41768">
        <ele>133.76</ele>
        <time>2017-07-16T08:57:59Z</time>
      </trkpt>
      <trkpt lat="50.11315" lon="3.4176">
        <ele>133.76</ele>
        <time>2017-07-16T08:58:00Z</time>
      </trkpt>
      <trkpt lat="50.11301" lon="3.41734">
        <ele>133.76</ele>
        <time>2017-07-16T08:58:04Z</time>
      </trkpt>
      <trkpt lat="50.11298" lon="3.41727">
        <ele>133.76</ele>
        <time>2017-07-16T08:58:05Z</time>
      </trkpt>
      <trkpt lat="50.11289" lon="3.41706">
        <ele>133.76</ele>
        <time>2017-07-16T08:58:08Z</time>
      </trkpt>
      <trkpt lat="50.11287" lon="3.41699">
        <ele>133.76</ele>
        <time>2017-07-16T08:58:09Z</time>
      </trkpt>
      <trkpt lat="50.11286" lon="3.41692">
        <ele>133.76</ele>
        <time>2017-07-16T08:58:10Z</time>
      </trkpt>
      <trkpt lat="50.11285" lon="3.41685">
        <ele>133.76</ele>
        <time>2017-07-16T08:58:11Z</time>
      </trkpt>
      <trkpt lat="50.11285" lon="3.41678">
        <ele>133.76</ele>
        <time>2017-07-16T08:58:12Z</time>
      </trkpt>
      <trkpt lat="50.11286" lon="3.41671">
        <ele>133.76</ele>
        <time>2017-07-16T08:58:13Z</time>
      </trkpt>
      <trkpt lat="50.11287" lon="3.41664">
        <ele>133.76</ele>
        <time>2017-07-16T08:58:14Z</time>
      </trkpt>
      <trkpt lat="50.11288" lon="3.41657">
        <ele>133.76</ele>
        <time>2017-07-16T08:58:15Z</time>
      </trkpt>
      <trkpt lat="50.1129" lon="3.41651">
        <ele>133.76</ele>
        <time>2017-07-16T08:58:16Z</time>
      </trkpt>
      <trkpt lat="50.11292" lon="3.41644">
        <ele>133.76</ele>
        <time>2017-07-16T08:58:17Z</time>
      </trkpt>
      <trkpt lat="50.11295" lon="3.41639">
        <ele>133.76</ele>
        <time>2017-07-16T08:58:18Z</time>
      </trkpt>
      <trkpt lat="50.11298" lon="3.41633">
        <ele>133.76</ele>
        <time>2017-07-16T08:58:19Z</time>
      </trkpt>
      <trkpt lat="50.11301" lon="3.41628">
        <ele>133.76</ele>
        <time>2017-07-16T08:58:20Z</time>
      </trkpt>
      <trkpt lat="50.11305" lon="3.41625">
        <ele>133.76</ele>
        <time>2017-07-16T08:58:21Z</time>
      </trkpt>
      <trkpt lat="50.1131" lon="3.41622">
        <ele>133.76</ele>
        <time>2017-07-16T08:58:22Z</time>
      </trkpt>
      <trkpt lat="50.11314" lon="3.41618">
        <ele>133.76</ele>
        <time>2017-07-16T08:58:23Z</time>
      </trkpt>
      <trkpt lat="50.11316" lon="3.4161">
        <ele>133.76</ele>
        <time>2017-07-16T08:58:24Z</time>
      </trkpt>
      <trkpt lat="50.11316" lon="3.41604">
        <ele>133.76</ele>
        <time>2017-07-16T08:58:25Z</time>
      </trkpt>
      <trkpt lat="50.11314" lon="3.41598">
        <ele>133.76</ele>
        <time>2017-07-16T08:58:26Z</time>
      </trkpt>
      <trkpt lat="50.1131" lon="3.41592">
        <ele>133.76</ele>
        <time>2017-07-16T08:58:27Z</time>
      </trkpt>
      <trkpt lat="50.11307" lon="3.41588">
        <ele>133.76</ele>
        <time>2017-07-16T08:58:28Z</time>
      </trkpt>
      <trkpt lat="50.11281" lon="3.41541">
        <ele>133.76</ele>
        <time>2017-07-16T08:58:37Z</time>
      </trkpt>
      <trkpt lat="50.11275" lon="3.41531">
        <ele>133.76</ele>
        <time>2017-07-16T08:58:39Z</time>
      </trkpt>
      <trkpt lat="50.1125" lon="3.41474">
        <ele>133.28</ele>
        <time>2017-07-16T08:58:48Z</time>
      </trkpt>
      <trkpt lat="50.11243" lon="3.41453">
        <ele>133.28</ele>
        <time>2017-07-16T08:58:51Z</time>
      </trkpt>
      <trkpt lat="50.1124" lon="3.41446">
        <ele>133.28</ele>
        <time>2017-07-16T08:58:52Z</time>
      </trkpt>
      <trkpt lat="50.11233" lon="3.41424">
        <ele>132.8</ele>
        <time>2017-07-16T08:58:55Z</time>
      </trkpt>
      <trkpt lat="50.11219" lon="3.41371">
        <ele>131.84</ele>
        <time>2017-07-16T08:59:02Z</time>
      </trkpt>
      <trkpt lat="50.11214" lon="3.41346">
        <ele>130.88</ele>
        <time>2017-07-16T08:59:05Z</time>
      </trkpt>
      <trkpt lat="50.11214" lon="3.41338">
        <ele>130.88</ele>
        <time>2017-07-16T08:59:06Z</time>
      </trkpt>
      <trkpt lat="50.11215" lon="3.4133">
        <ele>130.4</ele>
        <time>2017-07-16T08:59:07Z</time>
      </trkpt>
      <trkpt lat="50.11216" lon="3.41322">
        <ele>130.4</ele>
        <time>2017-07-16T08:59:08Z</time>
      </trkpt>
      <trkpt lat="50.11216" lon="3.41314">
        <ele>130.4</ele>
        <time>2017-07-16T08:59:09Z</time>
      </trkpt>
      <trkpt lat="50.11218" lon="3.41267">
        <ele>130.4</ele>
        <time>2017-07-16T08:59:15Z</time>
      </trkpt>
      <trkpt lat="50.11224" lon="3.41224">
        <ele>128.47</ele>
        <time>2017-07-16T08:59:20Z</time>
      </trkpt>
      <trkpt lat="50.11228" lon="3.41178">
        <ele>127.99</ele>
        <time>2017-07-16T08:59:25Z</time>
      </trkpt>
      <trkpt lat="50.11234" lon="3.41147">
        <ele>127.99</ele>
        <time>2017-07-16T08:59:29Z</time>
      </trkpt>
      <trkpt lat="50.11228" lon="3.41096">
        <ele>127.51</ele>
        <time>2017-07-16T08:59:37Z</time>
      </trkpt>
      <trkpt lat="50.11206" lon="3.41057">
        <ele>124.63</ele>
        <time>2017-07-16T08:59:45Z</time>
      </trkpt>
      <trkpt lat="50.11207" lon="3.41049">
        <ele>124.63</ele>
        <time>2017-07-16T08:59:46Z</time>
      </trkpt>
      <trkpt lat="50.11207" lon="3.41033">
        <ele>124.15</ele>
        <time>2017-07-16T08:59:48Z</time>
      </trkpt>
      <trkpt lat="50.11212" lon="3.41003">
        <ele>124.15</ele>
        <time>2017-07-16T08:59:52Z</time>
      </trkpt>
      <trkpt lat="50.11221" lon="3.40961">
        <ele>124.15</ele>
        <time>2017-07-16T08:59:58Z</time>
      </trkpt>
      <trkpt lat="50.11213" lon="3.40919">
        <ele>123.19</ele>
        <time>2017-07-16T09:00:04Z</time>
      </trkpt>
      <trkpt lat="50.11195" lon="3.40899">
        <ele>122.22</ele>
        <time>2017-07-16T09:00:08Z</time>
      </trkpt>
      <trkpt lat="50.11192" lon="3.40893">
        <ele>122.22</ele>
        <time>2017-07-16T09:00:09Z</time>
      </trkpt>
      <trkpt lat="50.11192" lon="3.40887">
        <ele>121.74</ele>
        <time>2017-07-16T09:00:10Z</time>
      </trkpt>
      <trkpt lat="50.11193" lon="3.40881">
        <ele>121.74</ele>
        <time>2017-07-16T09:00:11Z</time>
      </trkpt>
      <trkpt lat="50.11194" lon="3.40874">
        <ele>121.74</ele>
        <time>2017-07-16T09:00:12Z</time>
      </trkpt>
      <trkpt lat="50.11199" lon="3.40814">
        <ele>120.3</ele>
        <time>2017-07-16T09:00:21Z</time>
      </trkpt>
      <trkpt lat="50.112" lon="3.40806">
        <ele>120.3</ele>
        <time>2017-07-16T09:00:22Z</time>
      </trkpt>
      <trkpt lat="50.11202" lon="3.40798">
        <ele>120.3</ele>
        <time>2017-07-16T09:00:23Z</time>
      </trkpt>
      <trkpt lat="50.11205" lon="3.40791">
        <ele>120.3</ele>
        <time>2017-07-16T09:00:24Z</time>
      </trkpt>
      <trkpt lat="50.11208" lon="3.40783">
        <ele>120.3</ele>
        <time>2017-07-16T09:00:25Z</time>
      </trkpt>
      <trkpt lat="50.11211" lon="3.40775">
        <ele>119.82</ele>
        <time>2017-07-16T09:00:26Z</time>
      </trkpt>
      <trkpt lat="50.11212" lon="3.40767">
        <ele>119.82</ele>
        <time>2017-07-16T09:00:27Z</time>
      </trkpt>
      <trkpt lat="50.11213" lon="3.40758">
        <ele>119.82</ele>
        <time>2017-07-16T09:00:28Z</time>
      </trkpt>
      <trkpt lat="50.11213" lon="3.40749">
        <ele>119.82</ele>
        <time>2017-07-16T09:00:29Z</time>
      </trkpt>
      <trkpt lat="50.11214" lon="3.4073">
        <ele>119.82</ele>
        <time>2017-07-16T09:00:31Z</time>
      </trkpt>
      <trkpt lat="50.11215" lon="3.40722">
        <ele>119.82</ele>
        <time>2017-07-16T09:00:32Z</time>
      </trkpt>
      <trkpt lat="50.11215" lon="3.40713">
        <ele>119.82</ele>
        <time>2017-07-16T09:00:33Z</time>
      </trkpt>
      <trkpt lat="50.11212" lon="3.40705">
        <ele>119.82</ele>
        <time>2017-07-16T09:00:34Z</time>
      </trkpt>
      <trkpt lat="50.11209" lon="3.40698">
        <ele>119.82</ele>
        <time>2017-07-16T09:00:35Z</time>
      </trkpt>
      <trkpt lat="50.11191" lon="3.40664">
        <ele>121.26</ele>
        <time>2017-07-16T09:00:40Z</time>
      </trkpt>
      <trkpt lat="50.11189" lon="3.40656">
        <ele>121.26</ele>
        <time>2017-07-16T09:00:41Z</time>
      </trkpt>
      <trkpt lat="50.11188" lon="3.40647">
        <ele>121.26</ele>
        <time>2017-07-16T09:00:42Z</time>
      </trkpt>
      <trkpt lat="50.11189" lon="3.40639">
        <ele>121.26</ele>
        <time>2017-07-16T09:00:43Z</time>
      </trkpt>
      <trkpt lat="50.1119" lon="3.40631">
        <ele>121.26</ele>
        <time>2017-07-16T09:00:44Z</time>
      </trkpt>
      <trkpt lat="50.11191" lon="3.40623">
        <ele>121.26</ele>
        <time>2017-07-16T09:00:45Z</time>
      </trkpt>
      <trkpt lat="50.11205" lon="3.40525">
        <ele>122.71</ele>
        <time>2017-07-16T09:00:58Z</time>
      </trkpt>
      <trkpt lat="50.11209" lon="3.40504">
        <ele>122.71</ele>
        <time>2017-07-16T09:01:01Z</time>
      </trkpt>
      <trkpt lat="50.11211" lon="3.40498">
        <ele>122.71</ele>
        <time>2017-07-16T09:01:02Z</time>
      </trkpt>
      <trkpt lat="50.11251" lon="3.40393">
        <ele>122.71</ele>
        <time>2017-07-16T09:01:18Z</time>
      </trkpt>
      <trkpt lat="50.11254" lon="3.40379">
        <ele>121.74</ele>
        <time>2017-07-16T09:01:20Z</time>
      </trkpt>
      <trkpt lat="50.11257" lon="3.40358">
        <ele>121.74</ele>
        <time>2017-07-16T09:01:23Z</time>
      </trkpt>
      <trkpt lat="50.11258" lon="3.40351">
        <ele>121.74</ele>
        <time>2017-07-16T09:01:24Z</time>
      </trkpt>
      <trkpt lat="50.11259" lon="3.40344">
        <ele>121.74</ele>
        <time>2017-07-16T09:01:25Z</time>
      </trkpt>
      <trkpt lat="50.11267" lon="3.40299">
        <ele>120.3</ele>
        <time>2017-07-16T09:01:33Z</time>
      </trkpt>
      <trkpt lat="50.11269" lon="3.40279">
        <ele>119.34</ele>
        <time>2017-07-16T09:01:36Z</time>
      </trkpt>
      <trkpt lat="50.1127" lon="3.40271">
        <ele>119.34</ele>
        <time>2017-07-16T09:01:37Z</time>
      </trkpt>
      <trkpt lat="50.11271" lon="3.40263">
        <ele>119.34</ele>
        <time>2017-07-16T09:01:38Z</time>
      </trkpt>
      <trkpt lat="50.11272" lon="3.40255">
        <ele>118.86</ele>
        <time>2017-07-16T09:01:39Z</time>
      </trkpt>
      <trkpt lat="50.11273" lon="3.40247">
        <ele>118.86</ele>
        <time>2017-07-16T09:01:40Z</time>
      </trkpt>
      <trkpt lat="50.11275" lon="3.4023">
        <ele>118.38</ele>
        <time>2017-07-16T09:01:42Z</time>
      </trkpt>
      <trkpt lat="50.1128" lon="3.40202">
        <ele>116.94</ele>
        <time>2017-07-16T09:01:45Z</time>
      </trkpt>
      <trkpt lat="50.11287" lon="3.40155">
        <ele>115.98</ele>
        <time>2017-07-16T09:01:50Z</time>
      </trkpt>
      <trkpt lat="50.11288" lon="3.40145">
        <ele>115.98</ele>
        <time>2017-07-16T09:01:51Z</time>
      </trkpt>
      <trkpt lat="50.11289" lon="3.40135">
        <ele>115.5</ele>
        <time>2017-07-16T09:01:52Z</time>
      </trkpt>
      <trkpt lat="50.11291" lon="3.40116">
        <ele>115.01</ele>
        <time>2017-07-16T09:01:54Z</time>
      </trkpt>
      <trkpt lat="50.11296" lon="3.40089">
        <ele>114.53</ele>
        <time>2017-07-16T09:01:57Z</time>
      </trkpt>
      <trkpt lat="50.11297" lon="3.40072">
        <ele>114.05</ele>
        <time>2017-07-16T09:01:59Z</time>
      </trkpt>
      <trkpt lat="50.11297" lon="3.40063">
        <ele>114.05</ele>
        <time>2017-07-16T09:02:00Z</time>
      </trkpt>
      <trkpt lat="50.11303" lon="3.3996">
        <ele>113.09</ele>
        <time>2017-07-16T09:02:12Z</time>
      </trkpt>
      <trkpt lat="50.11318" lon="3.39841">
        <ele>112.13</ele>
        <time>2017-07-16T09:02:26Z</time>
      </trkpt>
      <trkpt lat="50.11332" lon="3.39751">
        <ele>112.13</ele>
        <time>2017-07-16T09:02:38Z</time>
      </trkpt>
      <trkpt lat="50.11333" lon="3.39744">
        <ele>112.13</ele>
        <time>2017-07-16T09:02:39Z</time>
      </trkpt>
      <trkpt lat="50.11337" lon="3.39731">
        <ele>112.13</ele>
        <time>2017-07-16T09:02:41Z</time>
      </trkpt>
      <trkpt lat="50.11342" lon="3.39719">
        <ele>113.09</ele>
        <time>2017-07-16T09:02:43Z</time>
      </trkpt>
      <trkpt lat="50.11354" lon="3.3968">
        <ele>113.57</ele>
        <time>2017-07-16T09:02:49Z</time>
      </trkpt>
      <trkpt lat="50.11359" lon="3.39648">
        <ele>113.57</ele>
        <time>2017-07-16T09:02:54Z</time>
      </trkpt>
      <trkpt lat="50.11371" lon="3.39561">
        <ele>115.01</ele>
        <time>2017-07-16T09:03:09Z</time>
      </trkpt>
      <trkpt lat="50.11373" lon="3.39488">
        <ele>116.94</ele>
        <time>2017-07-16T09:03:22Z</time>
      </trkpt>
      <trkpt lat="50.11367" lon="3.39415">
        <ele>117.42</ele>
        <time>2017-07-16T09:03:37Z</time>
      </trkpt>
      <trkpt lat="50.11374" lon="3.3935">
        <ele>118.38</ele>
        <time>2017-07-16T09:03:51Z</time>
      </trkpt>
      <trkpt lat="50.11384" lon="3.39305">
        <ele>120.3</ele>
        <time>2017-07-16T09:04:04Z</time>
      </trkpt>
      <trkpt lat="50.11394" lon="3.39273">
        <ele>121.74</ele>
        <time>2017-07-16T09:04:14Z</time>
      </trkpt>
      <trkpt lat="50.11394" lon="3.3927">
        <ele>122.71</ele>
        <time>2017-07-16T09:04:15Z</time>
      </trkpt>
      <trkpt lat="50.11393" lon="3.39268">
        <ele>122.71</ele>
        <time>2017-07-16T09:04:16Z</time>
      </trkpt>
      <trkpt lat="50.11392" lon="3.39265">
        <ele>122.71</ele>
        <time>2017-07-16T09:04:17Z</time>
      </trkpt>
      <trkpt lat="50.1139" lon="3.39264">
        <ele>122.71</ele>
        <time>2017-07-16T09:04:18Z</time>
      </trkpt>
      <trkpt lat="50.11388" lon="3.39263">
        <ele>123.19</ele>
        <time>2017-07-16T09:04:19Z</time>
      </trkpt>
      <trkpt lat="50.11386" lon="3.39262">
        <ele>123.19</ele>
        <time>2017-07-16T09:04:20Z</time>
      </trkpt>
      <trkpt lat="50.11385" lon="3.39261">
        <ele>123.19</ele>
        <time>2017-07-16T09:04:21Z</time>
      </trkpt>
      <trkpt lat="50.11383" lon="3.3926">
        <ele>123.67</ele>
        <time>2017-07-16T09:04:22Z</time>
      </trkpt>
      <trkpt lat="50.11381" lon="3.3926">
        <ele>123.67</ele>
        <time>2017-07-16T09:04:23Z</time>
      </trkpt>
      <trkpt lat="50.1138" lon="3.39259">
        <ele>123.67</ele>
        <time>2017-07-16T09:04:24Z</time>
      </trkpt>
      <trkpt lat="50.11378" lon="3.39258">
        <ele>123.67</ele>
        <time>2017-07-16T09:04:25Z</time>
      </trkpt>
      <trkpt lat="50.11376" lon="3.39257">
        <ele>123.67</ele>
        <time>2017-07-16T09:04:26Z</time>
      </trkpt>
      <trkpt lat="50.11374" lon="3.39257">
        <ele>123.67</ele>
        <time>2017-07-16T09:04:27Z</time>
      </trkpt>
      <trkpt lat="50.11372" lon="3.39256">
        <ele>123.67</ele>
        <time>2017-07-16T09:04:28Z</time>
      </trkpt>
      <trkpt lat="50.11369" lon="3.39255">
        <ele>123.67</ele>
        <time>2017-07-16T09:04:29Z</time>
      </trkpt>
      <trkpt lat="50.11366" lon="3.39254">
        <ele>123.67</ele>
        <time>2017-07-16T09:04:30Z</time>
      </trkpt>
      <trkpt lat="50.11362" lon="3.39254">
        <ele>123.67</ele>
        <time>2017-07-16T09:04:31Z</time>
      </trkpt>
      <trkpt lat="50.11358" lon="3.39253">
        <ele>123.67</ele>
        <time>2017-07-16T09:04:32Z</time>
      </trkpt>
      <trkpt lat="50.11354" lon="3.39251">
        <ele>122.22</ele>
        <time>2017-07-16T09:04:33Z</time>
      </trkpt>
      <trkpt lat="50.11349" lon="3.39249">
        <ele>121.74</ele>
        <time>2017-07-16T09:04:34Z</time>
      </trkpt>
      <trkpt lat="50.11344" lon="3.39246">
        <ele>121.74</ele>
        <time>2017-07-16T09:04:35Z</time>
      </trkpt>
      <trkpt lat="50.11338" lon="3.39244">
        <ele>120.78</ele>
        <time>2017-07-16T09:04:36Z</time>
      </trkpt>
      <trkpt lat="50.11313" lon="3.39236">
        <ele>119.34</ele>
        <time>2017-07-16T09:04:40Z</time>
      </trkpt>
      <trkpt lat="50.11298" lon="3.39229">
        <ele>117.9</ele>
        <time>2017-07-16T09:04:43Z</time>
      </trkpt>
      <trkpt lat="50.11293" lon="3.39224">
        <ele>117.9</ele>
        <time>2017-07-16T09:04:44Z</time>
      </trkpt>
      <trkpt lat="50.11289" lon="3.39218">
        <ele>117.42</ele>
        <time>2017-07-16T09:04:45Z</time>
      </trkpt>
      <trkpt lat="50.11282" lon="3.39191">
        <ele>115.98</ele>
        <time>2017-07-16T09:04:48Z</time>
      </trkpt>
      <trkpt lat="50.1128" lon="3.3917">
        <ele>115.01</ele>
        <time>2017-07-16T09:04:50Z</time>
      </trkpt>
      <trkpt lat="50.11273" lon="3.39092">
        <ele>112.61</ele>
        <time>2017-07-16T09:04:57Z</time>
      </trkpt>
      <trkpt lat="50.1127" lon="3.39082">
        <ele>112.61</ele>
        <time>2017-07-16T09:04:58Z</time>
      </trkpt>
      <trkpt lat="50.11267" lon="3.39074">
        <ele>112.61</ele>
        <time>2017-07-16T09:04:59Z</time>
      </trkpt>
      <trkpt lat="50.11262" lon="3.39067">
        <ele>112.13</ele>
        <time>2017-07-16T09:05:00Z</time>
      </trkpt>
      <trkpt lat="50.11257" lon="3.3906">
        <ele>112.13</ele>
        <time>2017-07-16T09:05:01Z</time>
      </trkpt>
      <trkpt lat="50.11252" lon="3.39052">
        <ele>112.13</ele>
        <time>2017-07-16T09:05:02Z</time>
      </trkpt>
      <trkpt lat="50.11247" lon="3.39045">
        <ele>111.17</ele>
        <time>2017-07-16T09:05:03Z</time>
      </trkpt>
      <trkpt lat="50.11198" lon="3.38965">
        <ele>108.29</ele>
        <time>2017-07-16T09:05:13Z</time>
      </trkpt>
      <trkpt lat="50.11165" lon="3.38895">
        <ele>104.92</ele>
        <time>2017-07-16T09:05:20Z</time>
      </trkpt>
      <trkpt lat="50.1115" lon="3.3887">
        <ele>104.92</ele>
        <time>2017-07-16T09:05:23Z</time>
      </trkpt>
      <trkpt lat="50.11133" lon="3.38851">
        <ele>104.44</ele>
        <time>2017-07-16T09:05:26Z</time>
      </trkpt>
      <trkpt lat="50.11127" lon="3.38849">
        <ele>104.44</ele>
        <time>2017-07-16T09:05:27Z</time>
      </trkpt>
      <trkpt lat="50.11121" lon="3.38847">
        <ele>104.44</ele>
        <time>2017-07-16T09:05:28Z</time>
      </trkpt>
      <trkpt lat="50.11092" lon="3.38839">
        <ele>104.44</ele>
        <time>2017-07-16T09:05:34Z</time>
      </trkpt>
      <trkpt lat="50.11027" lon="3.38811">
        <ele>106.84</ele>
        <time>2017-07-16T09:05:51Z</time>
      </trkpt>
      <trkpt lat="50.10977" lon="3.38785">
        <ele>108.29</ele>
        <time>2017-07-16T09:06:06Z</time>
      </trkpt>
      <trkpt lat="50.10939" lon="3.38768">
        <ele>111.17</ele>
        <time>2017-07-16T09:06:18Z</time>
      </trkpt>
      <trkpt lat="50.10898" lon="3.3875">
        <ele>112.61</ele>
        <time>2017-07-16T09:06:31Z</time>
      </trkpt>
      <trkpt lat="50.10852" lon="3.38729">
        <ele>114.05</ele>
        <time>2017-07-16T09:06:46Z</time>
      </trkpt>
      <trkpt lat="50.10803" lon="3.38711">
        <ele>115.01</ele>
        <time>2017-07-16T09:07:02Z</time>
      </trkpt>
      <trkpt lat="50.10748" lon="3.38687">
        <ele>116.46</ele>
        <time>2017-07-16T09:07:19Z</time>
      </trkpt>
      <trkpt lat="50.10694" lon="3.38675">
        <ele>116.94</ele>
        <time>2017-07-16T09:07:34Z</time>
      </trkpt>
      <trkpt lat="50.10632" lon="3.38646">
        <ele>117.9</ele>
        <time>2017-07-16T09:07:52Z</time>
      </trkpt>
      <trkpt lat="50.10593" lon="3.38622">
        <ele>119.34</ele>
        <time>2017-07-16T09:08:05Z</time>
      </trkpt>
      <trkpt lat="50.10568" lon="3.38602">
        <ele>120.78</ele>
        <time>2017-07-16T09:08:18Z</time>
      </trkpt>
      <trkpt lat="50.10539" lon="3.38582">
        <ele>122.22</ele>
        <time>2017-07-16T09:08:30Z</time>
      </trkpt>
      <trkpt lat="50.1049" lon="3.38566">
        <ele>122.71</ele>
        <time>2017-07-16T09:08:45Z</time>
      </trkpt>
      <trkpt lat="50.10447" lon="3.38551">
        <ele>123.67</ele>
        <time>2017-07-16T09:08:58Z</time>
      </trkpt>
      <trkpt lat="50.10388" lon="3.38532">
        <ele>124.15</ele>
        <time>2017-07-16T09:09:15Z</time>
      </trkpt>
      <trkpt lat="50.10336" lon="3.38509">
        <ele>124.15</ele>
        <time>2017-07-16T09:09:30Z</time>
      </trkpt>
      <trkpt lat="50.10288" lon="3.38486">
        <ele>124.63</ele>
        <time>2017-07-16T09:09:44Z</time>
      </trkpt>
      <trkpt lat="50.10246" lon="3.38467">
        <ele>125.11</ele>
        <time>2017-07-16T09:09:57Z</time>
      </trkpt>
      <trkpt lat="50.10189" lon="3.38443">
        <ele>126.07</ele>
        <time>2017-07-16T09:10:15Z</time>
      </trkpt>
      <trkpt lat="50.10141" lon="3.38419">
        <ele>127.03</ele>
        <time>2017-07-16T09:10:31Z</time>
      </trkpt>
      <trkpt lat="50.10102" lon="3.38383">
        <ele>127.99</ele>
        <time>2017-07-16T09:10:47Z</time>
      </trkpt>
      <trkpt lat="50.10067" lon="3.38325">
        <ele>129.43</ele>
        <time>2017-07-16T09:11:04Z</time>
      </trkpt>
      <trkpt lat="50.10044" lon="3.38259">
        <ele>132.32</ele>
        <time>2017-07-16T09:11:20Z</time>
      </trkpt>
      <trkpt lat="50.10027" lon="3.38179">
        <ele>134.72</ele>
        <time>2017-07-16T09:11:38Z</time>
      </trkpt>
      <trkpt lat="50.10011" lon="3.38108">
        <ele>137.13</ele>
        <time>2017-07-16T09:11:54Z</time>
      </trkpt>
      <trkpt lat="50.09997" lon="3.38046">
        <ele>138.57</ele>
        <time>2017-07-16T09:12:08Z</time>
      </trkpt>
      <trkpt lat="50.09975" lon="3.37977">
        <ele>139.05</ele>
        <time>2017-07-16T09:12:23Z</time>
      </trkpt>
      <trkpt lat="50.0995" lon="3.37891">
        <ele>139.53</ele>
        <time>2017-07-16T09:12:40Z</time>
      </trkpt>
      <trkpt lat="50.09959" lon="3.37836">
        <ele>139.53</ele>
        <time>2017-07-16T09:12:51Z</time>
      </trkpt>
      <trkpt lat="50.09966" lon="3.37771">
        <ele>138.09</ele>
        <time>2017-07-16T09:13:04Z</time>
      </trkpt>
      <trkpt lat="50.09959" lon="3.37756">
        <ele>137.61</ele>
        <time>2017-07-16T09:13:07Z</time>
      </trkpt>
      <trkpt lat="50.09953" lon="3.37745">
        <ele>137.61</ele>
        <time>2017-07-16T09:13:09Z</time>
      </trkpt>
      <trkpt lat="50.09948" lon="3.37741">
        <ele>137.13</ele>
        <time>2017-07-16T09:13:10Z</time>
      </trkpt>
      <trkpt lat="50.09944" lon="3.37737">
        <ele>136.64</ele>
        <time>2017-07-16T09:13:11Z</time>
      </trkpt>
      <trkpt lat="50.09923" lon="3.3772">
        <ele>134.72</ele>
        <time>2017-07-16T09:13:15Z</time>
      </trkpt>
      <trkpt lat="50.09918" lon="3.37713">
        <ele>134.72</ele>
        <time>2017-07-16T09:13:16Z</time>
      </trkpt>
      <trkpt lat="50.09914" lon="3.37705">
        <ele>134.24</ele>
        <time>2017-07-16T09:13:17Z</time>
      </trkpt>
      <trkpt lat="50.09911" lon="3.37695">
        <ele>133.76</ele>
        <time>2017-07-16T09:13:18Z</time>
      </trkpt>
      <trkpt lat="50.0991" lon="3.37685">
        <ele>133.76</ele>
        <time>2017-07-16T09:13:19Z</time>
      </trkpt>
      <trkpt lat="50.0991" lon="3.37675">
        <ele>133.28</ele>
        <time>2017-07-16T09:13:20Z</time>
      </trkpt>
      <trkpt lat="50.09909" lon="3.37665">
        <ele>132.8</ele>
        <time>2017-07-16T09:13:21Z</time>
      </trkpt>
      <trkpt lat="50.09908" lon="3.37654">
        <ele>132.32</ele>
        <time>2017-07-16T09:13:22Z</time>
      </trkpt>
      <trkpt lat="50.09903" lon="3.3756">
        <ele>128.95</ele>
        <time>2017-07-16T09:13:30Z</time>
      </trkpt>
      <trkpt lat="50.09903" lon="3.37547">
        <ele>128.47</ele>
        <time>2017-07-16T09:13:31Z</time>
      </trkpt>
      <trkpt lat="50.099" lon="3.37494">
        <ele>127.03</ele>
        <time>2017-07-16T09:13:36Z</time>
      </trkpt>
      <trkpt lat="50.09899" lon="3.37487">
        <ele>126.55</ele>
        <time>2017-07-16T09:13:37Z</time>
      </trkpt>
      <trkpt lat="50.09899" lon="3.37481">
        <ele>126.55</ele>
        <time>2017-07-16T09:13:38Z</time>
      </trkpt>
      <trkpt lat="50.09898" lon="3.37478">
        <ele>126.55</ele>
        <time>2017-07-16T09:13:39Z</time>
      </trkpt>
      <trkpt lat="50.09897" lon="3.37475">
        <ele>126.55</ele>
        <time>2017-07-16T09:13:40Z</time>
      </trkpt>
      <trkpt lat="50.09896" lon="3.37471">
        <ele>125.59</ele>
        <time>2017-07-16T09:13:41Z</time>
      </trkpt>
      <trkpt lat="50.09894" lon="3.37466">
        <ele>125.59</ele>
        <time>2017-07-16T09:13:42Z</time>
      </trkpt>
      <trkpt lat="50.09892" lon="3.37461">
        <ele>125.59</ele>
        <time>2017-07-16T09:13:43Z</time>
      </trkpt>
      <trkpt lat="50.0989" lon="3.37455">
        <ele>125.59</ele>
        <time>2017-07-16T09:13:44Z</time>
      </trkpt>
      <trkpt lat="50.0986" lon="3.37369">
        <ele>122.22</ele>
        <time>2017-07-16T09:13:54Z</time>
      </trkpt>
      <trkpt lat="50.09849" lon="3.3733">
        <ele>121.26</ele>
        <time>2017-07-16T09:13:58Z</time>
      </trkpt>
      <trkpt lat="50.09812" lon="3.37232">
        <ele>121.74</ele>
        <time>2017-07-16T09:14:11Z</time>
      </trkpt>
      <trkpt lat="50.09809" lon="3.37226">
        <ele>122.71</ele>
        <time>2017-07-16T09:14:12Z</time>
      </trkpt>
      <trkpt lat="50.09804" lon="3.37211">
        <ele>122.71</ele>
        <time>2017-07-16T09:14:14Z</time>
      </trkpt>
      <trkpt lat="50.09802" lon="3.37204">
        <ele>123.67</ele>
        <time>2017-07-16T09:14:15Z</time>
      </trkpt>
      <trkpt lat="50.09799" lon="3.37197">
        <ele>123.67</ele>
        <time>2017-07-16T09:14:16Z</time>
      </trkpt>
      <trkpt lat="50.09796" lon="3.3719">
        <ele>123.67</ele>
        <time>2017-07-16T09:14:17Z</time>
      </trkpt>
      <trkpt lat="50.09794" lon="3.37182">
        <ele>124.15</ele>
        <time>2017-07-16T09:14:18Z</time>
      </trkpt>
      <trkpt lat="50.09791" lon="3.37175">
        <ele>124.15</ele>
        <time>2017-07-16T09:14:19Z</time>
      </trkpt>
      <trkpt lat="50.09789" lon="3.37168">
        <ele>125.11</ele>
        <time>2017-07-16T09:14:20Z</time>
      </trkpt>
      <trkpt lat="50.09787" lon="3.3716">
        <ele>125.11</ele>
        <time>2017-07-16T09:14:21Z</time>
      </trkpt>
      <trkpt lat="50.09784" lon="3.37153">
        <ele>125.11</ele>
        <time>2017-07-16T09:14:22Z</time>
      </trkpt>
      <trkpt lat="50.09782" lon="3.37146">
        <ele>125.59</ele>
        <time>2017-07-16T09:14:23Z</time>
      </trkpt>
      <trkpt lat="50.09768" lon="3.37114">
        <ele>127.03</ele>
        <time>2017-07-16T09:14:28Z</time>
      </trkpt>
      <trkpt lat="50.09762" lon="3.37101">
        <ele>127.99</ele>
        <time>2017-07-16T09:14:30Z</time>
      </trkpt>
      <trkpt lat="50.09759" lon="3.37095">
        <ele>127.99</ele>
        <time>2017-07-16T09:14:31Z</time>
      </trkpt>
      <trkpt lat="50.0973" lon="3.37033">
        <ele>130.4</ele>
        <time>2017-07-16T09:14:44Z</time>
      </trkpt>
      <trkpt lat="50.09725" lon="3.37024">
        <ele>130.88</ele>
        <time>2017-07-16T09:14:46Z</time>
      </trkpt>
      <trkpt lat="50.09701" lon="3.36975">
        <ele>132.8</ele>
        <time>2017-07-16T09:15:02Z</time>
      </trkpt>
      <trkpt lat="50.09679" lon="3.36931">
        <ele>133.76</ele>
        <time>2017-07-16T09:15:16Z</time>
      </trkpt>
      <trkpt lat="50.09656" lon="3.36883">
        <ele>133.76</ele>
        <time>2017-07-16T09:15:30Z</time>
      </trkpt>
      <trkpt lat="50.09643" lon="3.36854">
        <ele>132.32</ele>
        <time>2017-07-16T09:15:37Z</time>
      </trkpt>
      <trkpt lat="50.09622" lon="3.36811">
        <ele>132.32</ele>
        <time>2017-07-16T09:15:49Z</time>
      </trkpt>
      <trkpt lat="50.09598" lon="3.36758">
        <ele>128.95</ele>
        <time>2017-07-16T09:15:59Z</time>
      </trkpt>
      <trkpt lat="50.0957" lon="3.36698">
        <ele>126.07</ele>
        <time>2017-07-16T09:16:07Z</time>
      </trkpt>
      <trkpt lat="50.09539" lon="3.36635">
        <ele>122.71</ele>
        <time>2017-07-16T09:16:14Z</time>
      </trkpt>
      <trkpt lat="50.09506" lon="3.36566">
        <ele>119.82</ele>
        <time>2017-07-16T09:16:21Z</time>
      </trkpt>
      <trkpt lat="50.09496" lon="3.36545">
        <ele>119.34</ele>
        <time>2017-07-16T09:16:23Z</time>
      </trkpt>
      <trkpt lat="50.0947" lon="3.36491">
        <ele>115.98</ele>
        <time>2017-07-16T09:16:29Z</time>
      </trkpt>
      <trkpt lat="50.09466" lon="3.36483">
        <ele>115.98</ele>
        <time>2017-07-16T09:16:30Z</time>
      </trkpt>
      <trkpt lat="50.09433" lon="3.36416">
        <ele>112.61</ele>
        <time>2017-07-16T09:16:39Z</time>
      </trkpt>
      <trkpt lat="50.09427" lon="3.36402">
        <ele>112.61</ele>
        <time>2017-07-16T09:16:41Z</time>
      </trkpt>
      <trkpt lat="50.09414" lon="3.36367">
        <ele>110.69</ele>
        <time>2017-07-16T09:16:47Z</time>
      </trkpt>
      <trkpt lat="50.09422" lon="3.36352">
        <ele>109.25</ele>
        <time>2017-07-16T09:16:50Z</time>
      </trkpt>
      <trkpt lat="50.09472" lon="3.36311">
        <ele>108.77</ele>
        <time>2017-07-16T09:17:02Z</time>
      </trkpt>
      <trkpt lat="50.09521" lon="3.36266">
        <ele>107.81</ele>
        <time>2017-07-16T09:17:17Z</time>
      </trkpt>
      <trkpt lat="50.09555" lon="3.36231">
        <ele>106.84</ele>
        <time>2017-07-16T09:17:29Z</time>
      </trkpt>
      <trkpt lat="50.09574" lon="3.36165">
        <ele>104.44</ele>
        <time>2017-07-16T09:17:39Z</time>
      </trkpt>
      <trkpt lat="50.09564" lon="3.36114">
        <ele>103.48</ele>
        <time>2017-07-16T09:17:48Z</time>
      </trkpt>
      <trkpt lat="50.09565" lon="3.36116">
        <ele>103.48</ele>
        <time>2017-07-16T09:18:05Z</time>
      </trkpt>
      <trkpt lat="50.09571" lon="3.36137">
        <ele>103.48</ele>
        <time>2017-07-16T09:18:12Z</time>
      </trkpt>
      <trkpt lat="50.09567" lon="3.362">
        <ele>104.92</ele>
        <time>2017-07-16T09:18:26Z</time>
      </trkpt>
      <trkpt lat="50.09566" lon="3.36203">
        <ele>104.92</ele>
        <time>2017-07-16T09:18:27Z</time>
      </trkpt>
      <trkpt lat="50.09561" lon="3.36221">
        <ele>106.36</ele>
        <time>2017-07-16T09:18:32Z</time>
      </trkpt>
      <trkpt lat="50.09562" lon="3.36226">
        <ele>106.84</ele>
        <time>2017-07-16T09:18:35Z</time>
      </trkpt>
      <trkpt lat="50.09585" lon="3.36184">
        <ele>106.84</ele>
        <time>2017-07-16T09:18:48Z</time>
      </trkpt>
      <trkpt lat="50.09623" lon="3.36121">
        <ele>106.84</ele>
        <time>2017-07-16T09:19:03Z</time>
      </trkpt>
      <trkpt lat="50.0966" lon="3.3605">
        <ele>106.84</ele>
        <time>2017-07-16T09:19:18Z</time>
      </trkpt>
      <trkpt lat="50.0969" lon="3.35988">
        <ele>106.84</ele>
        <time>2017-07-16T09:19:32Z</time>
      </trkpt>
      <trkpt lat="50.09721" lon="3.35926">
        <ele>107.32</ele>
        <time>2017-07-16T09:19:48Z</time>
      </trkpt>
      <trkpt lat="50.09756" lon="3.3587">
        <ele>107.81</ele>
        <time>2017-07-16T09:20:03Z</time>
      </trkpt>
      <trkpt lat="50.09784" lon="3.35829">
        <ele>107.81</ele>
        <time>2017-07-16T09:20:16Z</time>
      </trkpt>
      <trkpt lat="50.09823" lon="3.35769">
        <ele>107.81</ele>
        <time>2017-07-16T09:20:32Z</time>
      </trkpt>
      <trkpt lat="50.09857" lon="3.35714">
        <ele>107.81</ele>
        <time>2017-07-16T09:20:46Z</time>
      </trkpt>
      <trkpt lat="50.09904" lon="3.35649">
        <ele>104.44</ele>
        <time>2017-07-16T09:21:02Z</time>
      </trkpt>
      <trkpt lat="50.09913" lon="3.35639">
        <ele>103.96</ele>
        <time>2017-07-16T09:21:04Z</time>
      </trkpt>
      <trkpt lat="50.09984" lon="3.35579">
        <ele>100.6</ele>
        <time>2017-07-16T09:21:18Z</time>
      </trkpt>
      <trkpt lat="50.10049" lon="3.35531">
        <ele>98.67</ele>
        <time>2017-07-16T09:21:32Z</time>
      </trkpt>
      <trkpt lat="50.10064" lon="3.35518">
        <ele>98.67</ele>
        <time>2017-07-16T09:21:36Z</time>
      </trkpt>
      <trkpt lat="50.10076" lon="3.35486">
        <ele>98.19</ele>
        <time>2017-07-16T09:21:42Z</time>
      </trkpt>
      <trkpt lat="50.10076" lon="3.35481">
        <ele>98.19</ele>
        <time>2017-07-16T09:21:43Z</time>
      </trkpt>
      <trkpt lat="50.10076" lon="3.35472">
        <ele>98.19</ele>
        <time>2017-07-16T09:21:45Z</time>
      </trkpt>
      <trkpt lat="50.10074" lon="3.35469">
        <ele>98.19</ele>
        <time>2017-07-16T09:21:46Z</time>
      </trkpt>
      <trkpt lat="50.10071" lon="3.35469">
        <ele>98.19</ele>
        <time>2017-07-16T09:21:47Z</time>
      </trkpt>
      <trkpt lat="50.10067" lon="3.3547">
        <ele>98.19</ele>
        <time>2017-07-16T09:21:48Z</time>
      </trkpt>
      <trkpt lat="50.10064" lon="3.35472">
        <ele>97.71</ele>
        <time>2017-07-16T09:21:49Z</time>
      </trkpt>
      <trkpt lat="50.1006" lon="3.35474">
        <ele>97.71</ele>
        <time>2017-07-16T09:21:50Z</time>
      </trkpt>
      <trkpt lat="50.10056" lon="3.35476">
        <ele>97.71</ele>
        <time>2017-07-16T09:21:51Z</time>
      </trkpt>
      <trkpt lat="50.10048" lon="3.3548">
        <ele>97.71</ele>
        <time>2017-07-16T09:21:53Z</time>
      </trkpt>
      <trkpt lat="50.09969" lon="3.35523">
        <ele>97.71</ele>
        <time>2017-07-16T09:22:11Z</time>
      </trkpt>
      <trkpt lat="50.09887" lon="3.35571">
        <ele>97.71</ele>
        <time>2017-07-16T09:22:29Z</time>
      </trkpt>
      <trkpt lat="50.09872" lon="3.35579">
        <ele>97.71</ele>
        <time>2017-07-16T09:22:32Z</time>
      </trkpt>
      <trkpt lat="50.09868" lon="3.35582">
        <ele>97.71</ele>
        <time>2017-07-16T09:22:33Z</time>
      </trkpt>
      <trkpt lat="50.09809" lon="3.35604">
        <ele>99.15</ele>
        <time>2017-07-16T09:22:46Z</time>
      </trkpt>
      <trkpt lat="50.09796" lon="3.3561">
        <ele>99.15</ele>
        <time>2017-07-16T09:22:49Z</time>
      </trkpt>
      <trkpt lat="50.09788" lon="3.35616">
        <ele>99.63</ele>
        <time>2017-07-16T09:22:51Z</time>
      </trkpt>
      <trkpt lat="50.09784" lon="3.3562">
        <ele>99.63</ele>
        <time>2017-07-16T09:22:52Z</time>
      </trkpt>
      <trkpt lat="50.0973" lon="3.35683">
        <ele>100.6</ele>
        <time>2017-07-16T09:23:09Z</time>
      </trkpt>
      <trkpt lat="50.09705" lon="3.35714">
        <ele>100.6</ele>
        <time>2017-07-16T09:23:17Z</time>
      </trkpt>
      <trkpt lat="50.09703" lon="3.35719">
        <ele>100.6</ele>
        <time>2017-07-16T09:23:18Z</time>
      </trkpt>
      <trkpt lat="50.09698" lon="3.35728">
        <ele>100.6</ele>
        <time>2017-07-16T09:23:21Z</time>
      </trkpt>
      <trkpt lat="50.09699" lon="3.35727">
        <ele>100.6</ele>
        <time>2017-07-16T09:23:31Z</time>
      </trkpt>
      <trkpt lat="50.097" lon="3.35724">
        <ele>100.6</ele>
        <time>2017-07-16T09:23:34Z</time>
      </trkpt>
      <trkpt lat="50.09701" lon="3.35722">
        <ele>100.6</ele>
        <time>2017-07-16T09:23:35Z</time>
      </trkpt>
      <trkpt lat="50.09703" lon="3.35719">
        <ele>100.6</ele>
        <time>2017-07-16T09:23:36Z</time>
      </trkpt>
      <trkpt lat="50.09705" lon="3.35716">
        <ele>100.6</ele>
        <time>2017-07-16T09:23:37Z</time>
      </trkpt>
      <trkpt lat="50.09707" lon="3.35712">
        <ele>100.6</ele>
        <time>2017-07-16T09:23:38Z</time>
      </trkpt>
      <trkpt lat="50.09749" lon="3.35663">
        <ele>100.6</ele>
        <time>2017-07-16T09:23:52Z</time>
      </trkpt>
      <trkpt lat="50.09753" lon="3.35658">
        <ele>100.6</ele>
        <time>2017-07-16T09:23:53Z</time>
      </trkpt>
      <trkpt lat="50.09779" lon="3.35623">
        <ele>100.6</ele>
        <time>2017-07-16T09:24:00Z</time>
      </trkpt>
      <trkpt lat="50.09784" lon="3.35619">
        <ele>100.6</ele>
        <time>2017-07-16T09:24:01Z</time>
      </trkpt>
      <trkpt lat="50.09804" lon="3.35605">
        <ele>99.15</ele>
        <time>2017-07-16T09:24:05Z</time>
      </trkpt>
      <trkpt lat="50.09811" lon="3.35604">
        <ele>99.15</ele>
        <time>2017-07-16T09:24:06Z</time>
      </trkpt>
      <trkpt lat="50.0985" lon="3.35593">
        <ele>99.15</ele>
        <time>2017-07-16T09:24:12Z</time>
      </trkpt>
      <trkpt lat="50.09951" lon="3.35536">
        <ele>98.19</ele>
        <time>2017-07-16T09:24:28Z</time>
      </trkpt>
      <trkpt lat="50.1005" lon="3.35479">
        <ele>97.71</ele>
        <time>2017-07-16T09:24:44Z</time>
      </trkpt>
      <trkpt lat="50.10073" lon="3.35467">
        <ele>97.71</ele>
        <time>2017-07-16T09:24:48Z</time>
      </trkpt>
      <trkpt lat="50.10078" lon="3.35462">
        <ele>97.71</ele>
        <time>2017-07-16T09:24:49Z</time>
      </trkpt>
      <trkpt lat="50.10081" lon="3.35454">
        <ele>97.71</ele>
        <time>2017-07-16T09:24:50Z</time>
      </trkpt>
      <trkpt lat="50.10084" lon="3.35447">
        <ele>97.71</ele>
        <time>2017-07-16T09:24:51Z</time>
      </trkpt>
      <trkpt lat="50.10085" lon="3.35438">
        <ele>97.71</ele>
        <time>2017-07-16T09:24:52Z</time>
      </trkpt>
      <trkpt lat="50.10087" lon="3.3543">
        <ele>97.71</ele>
        <time>2017-07-16T09:24:53Z</time>
      </trkpt>
      <trkpt lat="50.10094" lon="3.3539">
        <ele>98.67</ele>
        <time>2017-07-16T09:24:58Z</time>
      </trkpt>
      <trkpt lat="50.10109" lon="3.35313">
        <ele>100.6</ele>
        <time>2017-07-16T09:25:11Z</time>
      </trkpt>
      <trkpt lat="50.10121" lon="3.35253">
        <ele>103</ele>
        <time>2017-07-16T09:25:24Z</time>
      </trkpt>
      <trkpt lat="50.1013" lon="3.35201">
        <ele>104.92</ele>
        <time>2017-07-16T09:25:38Z</time>
      </trkpt>
      <trkpt lat="50.10142" lon="3.35132">
        <ele>106.84</ele>
        <time>2017-07-16T09:25:56Z</time>
      </trkpt>
      <trkpt lat="50.10156" lon="3.35059">
        <ele>108.29</ele>
        <time>2017-07-16T09:26:14Z</time>
      </trkpt>
      <trkpt lat="50.10167" lon="3.35002">
        <ele>108.77</ele>
        <time>2017-07-16T09:26:29Z</time>
      </trkpt>
      <trkpt lat="50.10177" lon="3.34951">
        <ele>111.17</ele>
        <time>2017-07-16T09:26:44Z</time>
      </trkpt>
      <trkpt lat="50.10186" lon="3.34904">
        <ele>113.09</ele>
        <time>2017-07-16T09:26:59Z</time>
      </trkpt>
      <trkpt lat="50.10195" lon="3.34856">
        <ele>115.01</ele>
        <time>2017-07-16T09:27:14Z</time>
      </trkpt>
      <trkpt lat="50.10203" lon="3.34812">
        <ele>116.94</ele>
        <time>2017-07-16T09:27:28Z</time>
      </trkpt>
      <trkpt lat="50.10215" lon="3.34758">
        <ele>118.86</ele>
        <time>2017-07-16T09:27:45Z</time>
      </trkpt>
      <trkpt lat="50.10229" lon="3.34712">
        <ele>119.82</ele>
        <time>2017-07-16T09:27:59Z</time>
      </trkpt>
      <trkpt lat="50.10248" lon="3.3466">
        <ele>119.82</ele>
        <time>2017-07-16T09:28:13Z</time>
      </trkpt>
      <trkpt lat="50.10279" lon="3.34583">
        <ele>120.3</ele>
        <time>2017-07-16T09:28:29Z</time>
      </trkpt>
      <trkpt lat="50.10293" lon="3.34547">
        <ele>119.34</ele>
        <time>2017-07-16T09:28:35Z</time>
      </trkpt>
      <trkpt lat="50.10318" lon="3.34457">
        <ele>117.9</ele>
        <time>2017-07-16T09:28:47Z</time>
      </trkpt>
      <trkpt lat="50.10319" lon="3.34449">
        <ele>117.9</ele>
        <time>2017-07-16T09:28:48Z</time>
      </trkpt>
      <trkpt lat="50.10322" lon="3.34432">
        <ele>117.42</ele>
        <time>2017-07-16T09:28:50Z</time>
      </trkpt>
      <trkpt lat="50.10324" lon="3.34423">
        <ele>117.42</ele>
        <time>2017-07-16T09:28:51Z</time>
      </trkpt>
      <trkpt lat="50.10326" lon="3.34415">
        <ele>116.94</ele>
        <time>2017-07-16T09:28:52Z</time>
      </trkpt>
      <trkpt lat="50.10329" lon="3.34407">
        <ele>116.94</ele>
        <time>2017-07-16T09:28:53Z</time>
      </trkpt>
      <trkpt lat="50.10333" lon="3.34399">
        <ele>116.94</ele>
        <time>2017-07-16T09:28:54Z</time>
      </trkpt>
      <trkpt lat="50.10336" lon="3.34392">
        <ele>115.98</ele>
        <time>2017-07-16T09:28:55Z</time>
      </trkpt>
      <trkpt lat="50.10366" lon="3.34323">
        <ele>114.05</ele>
        <time>2017-07-16T09:29:03Z</time>
      </trkpt>
      <trkpt lat="50.10366" lon="3.34312">
        <ele>114.05</ele>
        <time>2017-07-16T09:29:04Z</time>
      </trkpt>
      <trkpt lat="50.10364" lon="3.34302">
        <ele>114.05</ele>
        <time>2017-07-16T09:29:05Z</time>
      </trkpt>
      <trkpt lat="50.1036" lon="3.34295">
        <ele>114.05</ele>
        <time>2017-07-16T09:29:06Z</time>
      </trkpt>
      <trkpt lat="50.10355" lon="3.34288">
        <ele>114.05</ele>
        <time>2017-07-16T09:29:07Z</time>
      </trkpt>
      <trkpt lat="50.10313" lon="3.34224">
        <ele>113.09</ele>
        <time>2017-07-16T09:29:16Z</time>
      </trkpt>
      <trkpt lat="50.10305" lon="3.34208">
        <ele>112.61</ele>
        <time>2017-07-16T09:29:18Z</time>
      </trkpt>
      <trkpt lat="50.103" lon="3.342">
        <ele>112.61</ele>
        <time>2017-07-16T09:29:19Z</time>
      </trkpt>
      <trkpt lat="50.10278" lon="3.34166">
        <ele>112.61</ele>
        <time>2017-07-16T09:29:24Z</time>
      </trkpt>
      <trkpt lat="50.10275" lon="3.34158">
        <ele>112.61</ele>
        <time>2017-07-16T09:29:25Z</time>
      </trkpt>
      <trkpt lat="50.10272" lon="3.3415">
        <ele>112.61</ele>
        <time>2017-07-16T09:29:26Z</time>
      </trkpt>
      <trkpt lat="50.10269" lon="3.34141">
        <ele>112.61</ele>
        <time>2017-07-16T09:29:27Z</time>
      </trkpt>
      <trkpt lat="50.10267" lon="3.34132">
        <ele>112.61</ele>
        <time>2017-07-16T09:29:28Z</time>
      </trkpt>
      <trkpt lat="50.10265" lon="3.34123">
        <ele>112.13</ele>
        <time>2017-07-16T09:29:29Z</time>
      </trkpt>
      <trkpt lat="50.10247" lon="3.34034">
        <ele>110.69</ele>
        <time>2017-07-16T09:29:38Z</time>
      </trkpt>
      <trkpt lat="50.10243" lon="3.34026">
        <ele>110.69</ele>
        <time>2017-07-16T09:29:39Z</time>
      </trkpt>
      <trkpt lat="50.10238" lon="3.34019">
        <ele>110.21</ele>
        <time>2017-07-16T09:29:40Z</time>
      </trkpt>
      <trkpt lat="50.10232" lon="3.34014">
        <ele>109.73</ele>
        <time>2017-07-16T09:29:41Z</time>
      </trkpt>
      <trkpt lat="50.10225" lon="3.34009">
        <ele>109.73</ele>
        <time>2017-07-16T09:29:42Z</time>
      </trkpt>
      <trkpt lat="50.10167" lon="3.33971">
        <ele>105.88</ele>
        <time>2017-07-16T09:29:50Z</time>
      </trkpt>
      <trkpt lat="50.10143" lon="3.33957">
        <ele>104.92</ele>
        <time>2017-07-16T09:29:53Z</time>
      </trkpt>
      <trkpt lat="50.10135" lon="3.33955">
        <ele>104.44</ele>
        <time>2017-07-16T09:29:54Z</time>
      </trkpt>
      <trkpt lat="50.10127" lon="3.33955">
        <ele>104.44</ele>
        <time>2017-07-16T09:29:55Z</time>
      </trkpt>
      <trkpt lat="50.0999" lon="3.33968">
        <ele>104.44</ele>
        <time>2017-07-16T09:30:13Z</time>
      </trkpt>
      <trkpt lat="50.09906" lon="3.33988">
        <ele>105.88</ele>
        <time>2017-07-16T09:30:28Z</time>
      </trkpt>
      <trkpt lat="50.09841" lon="3.34012">
        <ele>107.32</ele>
        <time>2017-07-16T09:30:41Z</time>
      </trkpt>
      <trkpt lat="50.09812" lon="3.34024">
        <ele>107.81</ele>
        <time>2017-07-16T09:30:47Z</time>
      </trkpt>
      <trkpt lat="50.09785" lon="3.34031">
        <ele>108.29</ele>
        <time>2017-07-16T09:30:53Z</time>
      </trkpt>
      <trkpt lat="50.09751" lon="3.34042">
        <ele>108.77</ele>
        <time>2017-07-16T09:31:01Z</time>
      </trkpt>
      <trkpt lat="50.09701" lon="3.34069">
        <ele>109.73</ele>
        <time>2017-07-16T09:31:14Z</time>
      </trkpt>
      <trkpt lat="50.09696" lon="3.34072">
        <ele>109.73</ele>
        <time>2017-07-16T09:31:15Z</time>
      </trkpt>
      <trkpt lat="50.09673" lon="3.34084">
        <ele>110.69</ele>
        <time>2017-07-16T09:31:20Z</time>
      </trkpt>
      <trkpt lat="50.09669" lon="3.34086">
        <ele>110.69</ele>
        <time>2017-07-16T09:31:21Z</time>
      </trkpt>
      <trkpt lat="50.09665" lon="3.34089">
        <ele>110.69</ele>
        <time>2017-07-16T09:31:22Z</time>
      </trkpt>
      <trkpt lat="50.09619" lon="3.34118">
        <ele>112.61</ele>
        <time>2017-07-16T09:31:35Z</time>
      </trkpt>
      <trkpt lat="50.09572" lon="3.34152">
        <ele>113.57</ele>
        <time>2017-07-16T09:31:50Z</time>
      </trkpt>
      <trkpt lat="50.09523" lon="3.34192">
        <ele>115.98</ele>
        <time>2017-07-16T09:32:07Z</time>
      </trkpt>
      <trkpt lat="50.09488" lon="3.34219">
        <ele>115.5</ele>
        <time>2017-07-16T09:32:17Z</time>
      </trkpt>
      <trkpt lat="50.09484" lon="3.34222">
        <ele>115.5</ele>
        <time>2017-07-16T09:32:18Z</time>
      </trkpt>
      <trkpt lat="50.09417" lon="3.34273">
        <ele>115.5</ele>
        <time>2017-07-16T09:32:35Z</time>
      </trkpt>
      <trkpt lat="50.0939" lon="3.34296">
        <ele>115.5</ele>
        <time>2017-07-16T09:32:42Z</time>
      </trkpt>
      <trkpt lat="50.09386" lon="3.34299">
        <ele>115.5</ele>
        <time>2017-07-16T09:32:43Z</time>
      </trkpt>
      <trkpt lat="50.09328" lon="3.34345">
        <ele>116.94</ele>
        <time>2017-07-16T09:32:59Z</time>
      </trkpt>
      <trkpt lat="50.09317" lon="3.34355">
        <ele>117.42</ele>
        <time>2017-07-16T09:33:02Z</time>
      </trkpt>
      <trkpt lat="50.09265" lon="3.34398">
        <ele>118.38</ele>
        <time>2017-07-16T09:33:18Z</time>
      </trkpt>
      <trkpt lat="50.09222" lon="3.34433">
        <ele>119.34</ele>
        <time>2017-07-16T09:33:33Z</time>
      </trkpt>
      <trkpt lat="50.0918" lon="3.34467">
        <ele>121.26</ele>
        <time>2017-07-16T09:33:49Z</time>
      </trkpt>
      <trkpt lat="50.09149" lon="3.34491">
        <ele>122.22</ele>
        <time>2017-07-16T09:34:01Z</time>
      </trkpt>
      <trkpt lat="50.09105" lon="3.34525">
        <ele>122.22</ele>
        <time>2017-07-16T09:34:16Z</time>
      </trkpt>
      <trkpt lat="50.09057" lon="3.3456">
        <ele>123.19</ele>
        <time>2017-07-16T09:34:32Z</time>
      </trkpt>
      <trkpt lat="50.09012" lon="3.34596">
        <ele>124.63</ele>
        <time>2017-07-16T09:34:49Z</time>
      </trkpt>
      <trkpt lat="50.08967" lon="3.34632">
        <ele>126.55</ele>
        <time>2017-07-16T09:35:07Z</time>
      </trkpt>
      <trkpt lat="50.08924" lon="3.34667">
        <ele>127.99</ele>
        <time>2017-07-16T09:35:24Z</time>
      </trkpt>
      <trkpt lat="50.08883" lon="3.34701">
        <ele>129.92</ele>
        <time>2017-07-16T09:35:41Z</time>
      </trkpt>
      <trkpt lat="50.08837" lon="3.3474">
        <ele>131.36</ele>
        <time>2017-07-16T09:36:01Z</time>
      </trkpt>
      <trkpt lat="50.08799" lon="3.3477">
        <ele>132.8</ele>
        <time>2017-07-16T09:36:18Z</time>
      </trkpt>
      <trkpt lat="50.08764" lon="3.34799">
        <ele>134.24</ele>
        <time>2017-07-16T09:36:34Z</time>
      </trkpt>
      <trkpt lat="50.08715" lon="3.34829">
        <ele>135.2</ele>
        <time>2017-07-16T09:36:53Z</time>
      </trkpt>
      <trkpt lat="50.08671" lon="3.34853">
        <ele>136.16</ele>
        <time>2017-07-16T09:37:09Z</time>
      </trkpt>
      <trkpt lat="50.08627" lon="3.3488">
        <ele>137.61</ele>
        <time>2017-07-16T09:37:25Z</time>
      </trkpt>
      <trkpt lat="50.08589" lon="3.34906">
        <ele>137.61</ele>
        <time>2017-07-16T09:37:38Z</time>
      </trkpt>
      <trkpt lat="50.08543" lon="3.34936">
        <ele>135.2</ele>
        <time>2017-07-16T09:37:49Z</time>
      </trkpt>
      <trkpt lat="50.08537" lon="3.34939">
        <ele>135.2</ele>
        <time>2017-07-16T09:37:50Z</time>
      </trkpt>
      <trkpt lat="50.08468" lon="3.3498">
        <ele>132.32</ele>
        <time>2017-07-16T09:38:02Z</time>
      </trkpt>
      <trkpt lat="50.08462" lon="3.34981">
        <ele>132.32</ele>
        <time>2017-07-16T09:38:03Z</time>
      </trkpt>
      <trkpt lat="50.08456" lon="3.3498">
        <ele>131.84</ele>
        <time>2017-07-16T09:38:04Z</time>
      </trkpt>
      <trkpt lat="50.08443" lon="3.34976">
        <ele>131.36</ele>
        <time>2017-07-16T09:38:06Z</time>
      </trkpt>
      <trkpt lat="50.08437" lon="3.34973">
        <ele>131.36</ele>
        <time>2017-07-16T09:38:07Z</time>
      </trkpt>
      <trkpt lat="50.08363" lon="3.34927">
        <ele>129.43</ele>
        <time>2017-07-16T09:38:20Z</time>
      </trkpt>
      <trkpt lat="50.08344" lon="3.34916">
        <ele>129.43</ele>
        <time>2017-07-16T09:38:24Z</time>
      </trkpt>
      <trkpt lat="50.08315" lon="3.34907">
        <ele>129.43</ele>
        <time>2017-07-16T09:38:30Z</time>
      </trkpt>
      <trkpt lat="50.08272" lon="3.34876">
        <ele>130.88</ele>
        <time>2017-07-16T09:38:42Z</time>
      </trkpt>
      <trkpt lat="50.08242" lon="3.34845">
        <ele>132.8</ele>
        <time>2017-07-16T09:38:57Z</time>
      </trkpt>
      <trkpt lat="50.08212" lon="3.34809">
        <ele>135.2</ele>
        <time>2017-07-16T09:39:12Z</time>
      </trkpt>
      <trkpt lat="50.0818" lon="3.34769">
        <ele>137.13</ele>
        <time>2017-07-16T09:39:29Z</time>
      </trkpt>
      <trkpt lat="50.08146" lon="3.34737">
        <ele>139.05</ele>
        <time>2017-07-16T09:39:45Z</time>
      </trkpt>
      <trkpt lat="50.08112" lon="3.34722">
        <ele>140.01</ele>
        <time>2017-07-16T09:40:01Z</time>
      </trkpt>
      <trkpt lat="50.08081" lon="3.34747">
        <ele>139.05</ele>
        <time>2017-07-16T09:40:11Z</time>
      </trkpt>
      <trkpt lat="50.08077" lon="3.34749">
        <ele>139.05</ele>
        <time>2017-07-16T09:40:12Z</time>
      </trkpt>
      <trkpt lat="50.08069" lon="3.34754">
        <ele>138.09</ele>
        <time>2017-07-16T09:40:14Z</time>
      </trkpt>
      <trkpt lat="50.08064" lon="3.34755">
        <ele>138.09</ele>
        <time>2017-07-16T09:40:15Z</time>
      </trkpt>
      <trkpt lat="50.0806" lon="3.34752">
        <ele>138.09</ele>
        <time>2017-07-16T09:40:16Z</time>
      </trkpt>
      <trkpt lat="50.08057" lon="3.34748">
        <ele>138.09</ele>
        <time>2017-07-16T09:40:17Z</time>
      </trkpt>
      <trkpt lat="50.08055" lon="3.34745">
        <ele>138.09</ele>
        <time>2017-07-16T09:40:18Z</time>
      </trkpt>
      <trkpt lat="50.08053" lon="3.3474">
        <ele>138.09</ele>
        <time>2017-07-16T09:40:19Z</time>
      </trkpt>
      <trkpt lat="50.08027" lon="3.34675">
        <ele>140.97</ele>
        <time>2017-07-16T09:40:35Z</time>
      </trkpt>
    </trkseg>
  </trk>
</gpx>